<?xml version="1.0" encoding="UTF-8" standalone="no" ?>
<gpx xmlns="http://www.topografix.com/GPX/1/1" xmlns:xsi="http://www.w3.org/2001/XMLSchema-instance" xsi:schemaLocation="http://www.topografix.com/GPX/1/1 http://www.topografix.com/GPX/1/1/gpx.xsd" version="1.1" creator="VisuGPX - https://www.visugpx.com">
  <metadata>
    <name>Cap d\'Erquy</name>
    <desc><![CDATA[Cap d\'Erquy, séjour.]]></desc>
  </metadata>
  <trk>
    <name><![CDATA[AVR-26-15 12:19:37]]></name>
    <trkseg>
      <trkpt lat="48.63909" lon="-2.45213">
        <ele>82.33</ele>
        <time>2015-04-26T07:03:06Z</time>
      </trkpt>
      <trkpt lat="48.63913" lon="-2.45214">
        <ele>80.89</ele>
        <time>2015-04-26T07:03:21Z</time>
      </trkpt>
      <trkpt lat="48.63919" lon="-2.45233">
        <ele>80.89</ele>
        <time>2015-04-26T07:03:29Z</time>
      </trkpt>
      <trkpt lat="48.63919" lon="-2.45253">
        <ele>80.89</ele>
        <time>2015-04-26T07:03:39Z</time>
      </trkpt>
      <trkpt lat="48.63919" lon="-2.45261">
        <ele>81.37</ele>
        <time>2015-04-26T07:03:43Z</time>
      </trkpt>
      <trkpt lat="48.63919" lon="-2.45272">
        <ele>84.73</ele>
        <time>2015-04-26T07:03:50Z</time>
      </trkpt>
      <trkpt lat="48.63919" lon="-2.45274">
        <ele>81.85</ele>
        <time>2015-04-26T07:03:51Z</time>
      </trkpt>
      <trkpt lat="48.63918" lon="-2.45277">
        <ele>80.89</ele>
        <time>2015-04-26T07:03:53Z</time>
      </trkpt>
      <trkpt lat="48.63916" lon="-2.45304">
        <ele>80.89</ele>
        <time>2015-04-26T07:04:08Z</time>
      </trkpt>
      <trkpt lat="48.63915" lon="-2.45312">
        <ele>79.45</ele>
        <time>2015-04-26T07:04:13Z</time>
      </trkpt>
      <trkpt lat="48.63912" lon="-2.45323">
        <ele>79.93</ele>
        <time>2015-04-26T07:04:19Z</time>
      </trkpt>
      <trkpt lat="48.63902" lon="-2.45362">
        <ele>78.97</ele>
        <time>2015-04-26T07:04:40Z</time>
      </trkpt>
      <trkpt lat="48.63902" lon="-2.45366">
        <ele>78.97</ele>
        <time>2015-04-26T07:04:43Z</time>
      </trkpt>
      <trkpt lat="48.63901" lon="-2.45374">
        <ele>77.52</ele>
        <time>2015-04-26T07:04:47Z</time>
      </trkpt>
      <trkpt lat="48.63901" lon="-2.4539">
        <ele>78.48</ele>
        <time>2015-04-26T07:04:55Z</time>
      </trkpt>
      <trkpt lat="48.63908" lon="-2.45433">
        <ele>77.52</ele>
        <time>2015-04-26T07:05:17Z</time>
      </trkpt>
      <trkpt lat="48.63908" lon="-2.45441">
        <ele>77.52</ele>
        <time>2015-04-26T07:05:20Z</time>
      </trkpt>
      <trkpt lat="48.6391" lon="-2.45444">
        <ele>77.52</ele>
        <time>2015-04-26T07:05:23Z</time>
      </trkpt>
      <trkpt lat="48.63911" lon="-2.45448">
        <ele>77.52</ele>
        <time>2015-04-26T07:05:25Z</time>
      </trkpt>
      <trkpt lat="48.63912" lon="-2.45491">
        <ele>76.08</ele>
        <time>2015-04-26T07:05:46Z</time>
      </trkpt>
      <trkpt lat="48.63913" lon="-2.45504">
        <ele>75.6</ele>
        <time>2015-04-26T07:05:53Z</time>
      </trkpt>
      <trkpt lat="48.63912" lon="-2.45544">
        <ele>74.16</ele>
        <time>2015-04-26T07:06:15Z</time>
      </trkpt>
      <trkpt lat="48.63902" lon="-2.45563">
        <ele>73.68</ele>
        <time>2015-04-26T07:06:31Z</time>
      </trkpt>
      <trkpt lat="48.63876" lon="-2.45564">
        <ele>74.16</ele>
        <time>2015-04-26T07:06:53Z</time>
      </trkpt>
      <trkpt lat="48.63873" lon="-2.45564">
        <ele>73.68</ele>
        <time>2015-04-26T07:06:55Z</time>
      </trkpt>
      <trkpt lat="48.63869" lon="-2.45563">
        <ele>74.16</ele>
        <time>2015-04-26T07:06:58Z</time>
      </trkpt>
      <trkpt lat="48.63863" lon="-2.45562">
        <ele>74.64</ele>
        <time>2015-04-26T07:07:04Z</time>
      </trkpt>
      <trkpt lat="48.63859" lon="-2.45562">
        <ele>74.64</ele>
        <time>2015-04-26T07:07:08Z</time>
      </trkpt>
      <trkpt lat="48.63853" lon="-2.4556">
        <ele>74.16</ele>
        <time>2015-04-26T07:07:14Z</time>
      </trkpt>
      <trkpt lat="48.63843" lon="-2.45559">
        <ele>74.64</ele>
        <time>2015-04-26T07:07:33Z</time>
      </trkpt>
      <trkpt lat="48.63843" lon="-2.45562">
        <ele>74.64</ele>
        <time>2015-04-26T07:07:36Z</time>
      </trkpt>
      <trkpt lat="48.63842" lon="-2.45577">
        <ele>74.16</ele>
        <time>2015-04-26T07:07:57Z</time>
      </trkpt>
      <trkpt lat="48.63844" lon="-2.45578">
        <ele>75.6</ele>
        <time>2015-04-26T07:07:59Z</time>
      </trkpt>
      <trkpt lat="48.63847" lon="-2.4558">
        <ele>73.68</ele>
        <time>2015-04-26T07:08:02Z</time>
      </trkpt>
      <trkpt lat="48.63869" lon="-2.45581">
        <ele>73.68</ele>
        <time>2015-04-26T07:08:22Z</time>
      </trkpt>
      <trkpt lat="48.6387" lon="-2.45581">
        <ele>72.72</ele>
        <time>2015-04-26T07:08:23Z</time>
      </trkpt>
      <trkpt lat="48.63896" lon="-2.45584">
        <ele>73.2</ele>
        <time>2015-04-26T07:08:47Z</time>
      </trkpt>
      <trkpt lat="48.63916" lon="-2.45585">
        <ele>68.87</ele>
        <time>2015-04-26T07:09:07Z</time>
      </trkpt>
      <trkpt lat="48.63917" lon="-2.45585">
        <ele>73.2</ele>
        <time>2015-04-26T07:09:08Z</time>
      </trkpt>
      <trkpt lat="48.63923" lon="-2.45585">
        <ele>80.41</ele>
        <time>2015-04-26T07:09:14Z</time>
      </trkpt>
      <trkpt lat="48.63923" lon="-2.45586">
        <ele>76.08</ele>
        <time>2015-04-26T07:09:15Z</time>
      </trkpt>
      <trkpt lat="48.63924" lon="-2.45586">
        <ele>72.72</ele>
        <time>2015-04-26T07:09:16Z</time>
      </trkpt>
      <trkpt lat="48.63925" lon="-2.45587">
        <ele>73.68</ele>
        <time>2015-04-26T07:09:17Z</time>
      </trkpt>
      <trkpt lat="48.63947" lon="-2.45588">
        <ele>70.79</ele>
        <time>2015-04-26T07:09:36Z</time>
      </trkpt>
      <trkpt lat="48.63962" lon="-2.45589">
        <ele>68.39</ele>
        <time>2015-04-26T07:09:50Z</time>
      </trkpt>
      <trkpt lat="48.63962" lon="-2.45589">
        <ele>64.55</ele>
        <time>2015-04-26T07:09:57Z</time>
      </trkpt>
      <trkpt lat="48.63962" lon="-2.45589">
        <ele>69.83</ele>
        <time>2015-04-26T07:09:59Z</time>
      </trkpt>
      <trkpt lat="48.63981" lon="-2.45593">
        <ele>69.83</ele>
        <time>2015-04-26T07:10:05Z</time>
      </trkpt>
      <trkpt lat="48.64001" lon="-2.45593">
        <ele>68.39</ele>
        <time>2015-04-26T07:10:24Z</time>
      </trkpt>
      <trkpt lat="48.64023" lon="-2.45592">
        <ele>66.95</ele>
        <time>2015-04-26T07:10:47Z</time>
      </trkpt>
      <trkpt lat="48.6405" lon="-2.45595">
        <ele>65.51</ele>
        <time>2015-04-26T07:11:09Z</time>
      </trkpt>
      <trkpt lat="48.64072" lon="-2.45598">
        <ele>64.55</ele>
        <time>2015-04-26T07:11:28Z</time>
      </trkpt>
      <trkpt lat="48.64089" lon="-2.45604">
        <ele>64.07</ele>
        <time>2015-04-26T07:11:45Z</time>
      </trkpt>
      <trkpt lat="48.64091" lon="-2.45605">
        <ele>63.1</ele>
        <time>2015-04-26T07:11:47Z</time>
      </trkpt>
      <trkpt lat="48.64116" lon="-2.45605">
        <ele>62.14</ele>
        <time>2015-04-26T07:12:09Z</time>
      </trkpt>
      <trkpt lat="48.64137" lon="-2.45605">
        <ele>62.14</ele>
        <time>2015-04-26T07:12:28Z</time>
      </trkpt>
      <trkpt lat="48.64161" lon="-2.45608">
        <ele>61.66</ele>
        <time>2015-04-26T07:12:49Z</time>
      </trkpt>
      <trkpt lat="48.64166" lon="-2.45608">
        <ele>61.66</ele>
        <time>2015-04-26T07:12:53Z</time>
      </trkpt>
      <trkpt lat="48.64191" lon="-2.45608">
        <ele>61.66</ele>
        <time>2015-04-26T07:13:16Z</time>
      </trkpt>
      <trkpt lat="48.64203" lon="-2.4561">
        <ele>61.66</ele>
        <time>2015-04-26T07:13:34Z</time>
      </trkpt>
      <trkpt lat="48.64207" lon="-2.45601">
        <ele>61.66</ele>
        <time>2015-04-26T07:14:06Z</time>
      </trkpt>
      <trkpt lat="48.64209" lon="-2.45593">
        <ele>57.82</ele>
        <time>2015-04-26T07:14:10Z</time>
      </trkpt>
      <trkpt lat="48.64209" lon="-2.45592">
        <ele>61.66</ele>
        <time>2015-04-26T07:14:11Z</time>
      </trkpt>
      <trkpt lat="48.64212" lon="-2.45584">
        <ele>60.7</ele>
        <time>2015-04-26T07:14:17Z</time>
      </trkpt>
      <trkpt lat="48.64216" lon="-2.45575">
        <ele>60.7</ele>
        <time>2015-04-26T07:14:43Z</time>
      </trkpt>
      <trkpt lat="48.64229" lon="-2.45575">
        <ele>55.89</ele>
        <time>2015-04-26T07:14:57Z</time>
      </trkpt>
      <trkpt lat="48.6423" lon="-2.45575">
        <ele>60.7</ele>
        <time>2015-04-26T07:14:58Z</time>
      </trkpt>
      <trkpt lat="48.64237" lon="-2.45576">
        <ele>58.3</ele>
        <time>2015-04-26T07:15:04Z</time>
      </trkpt>
      <trkpt lat="48.6426" lon="-2.45569">
        <ele>57.34</ele>
        <time>2015-04-26T07:15:24Z</time>
      </trkpt>
      <trkpt lat="48.64271" lon="-2.45566">
        <ele>56.86</ele>
        <time>2015-04-26T07:15:36Z</time>
      </trkpt>
      <trkpt lat="48.64297" lon="-2.45575">
        <ele>56.37</ele>
        <time>2015-04-26T07:16:01Z</time>
      </trkpt>
      <trkpt lat="48.64321" lon="-2.45575">
        <ele>55.41</ele>
        <time>2015-04-26T07:16:24Z</time>
      </trkpt>
      <trkpt lat="48.64341" lon="-2.45575">
        <ele>54.45</ele>
        <time>2015-04-26T07:16:45Z</time>
      </trkpt>
      <trkpt lat="48.64365" lon="-2.45572">
        <ele>53.49</ele>
        <time>2015-04-26T07:17:07Z</time>
      </trkpt>
      <trkpt lat="48.64379" lon="-2.45574">
        <ele>52.53</ele>
        <time>2015-04-26T07:17:21Z</time>
      </trkpt>
      <trkpt lat="48.64396" lon="-2.45581">
        <ele>51.57</ele>
        <time>2015-04-26T07:17:41Z</time>
      </trkpt>
      <trkpt lat="48.64418" lon="-2.45586">
        <ele>50.61</ele>
        <time>2015-04-26T07:18:00Z</time>
      </trkpt>
      <trkpt lat="48.64438" lon="-2.45576">
        <ele>49.65</ele>
        <time>2015-04-26T07:18:22Z</time>
      </trkpt>
      <trkpt lat="48.64453" lon="-2.45577">
        <ele>48.68</ele>
        <time>2015-04-26T07:18:44Z</time>
      </trkpt>
      <trkpt lat="48.64468" lon="-2.45573">
        <ele>47.72</ele>
        <time>2015-04-26T07:19:07Z</time>
      </trkpt>
      <trkpt lat="48.64485" lon="-2.45575">
        <ele>47.24</ele>
        <time>2015-04-26T07:19:24Z</time>
      </trkpt>
      <trkpt lat="48.64502" lon="-2.45583">
        <ele>46.76</ele>
        <time>2015-04-26T07:19:41Z</time>
      </trkpt>
      <trkpt lat="48.6452" lon="-2.45583">
        <ele>46.28</ele>
        <time>2015-04-26T07:19:59Z</time>
      </trkpt>
      <trkpt lat="48.64541" lon="-2.45589">
        <ele>45.8</ele>
        <time>2015-04-26T07:20:16Z</time>
      </trkpt>
      <trkpt lat="48.64564" lon="-2.45595">
        <ele>44.84</ele>
        <time>2015-04-26T07:20:38Z</time>
      </trkpt>
      <trkpt lat="48.64581" lon="-2.45594">
        <ele>43.88</ele>
        <time>2015-04-26T07:20:58Z</time>
      </trkpt>
      <trkpt lat="48.64597" lon="-2.45589">
        <ele>42.92</ele>
        <time>2015-04-26T07:21:16Z</time>
      </trkpt>
      <trkpt lat="48.6461" lon="-2.45584">
        <ele>42.44</ele>
        <time>2015-04-26T07:21:30Z</time>
      </trkpt>
      <trkpt lat="48.64615" lon="-2.45577">
        <ele>41.95</ele>
        <time>2015-04-26T07:21:37Z</time>
      </trkpt>
      <trkpt lat="48.64628" lon="-2.45546">
        <ele>40.99</ele>
        <time>2015-04-26T07:21:58Z</time>
      </trkpt>
      <trkpt lat="48.64642" lon="-2.45517">
        <ele>36.19</ele>
        <time>2015-04-26T07:22:21Z</time>
      </trkpt>
      <trkpt lat="48.64656" lon="-2.45494">
        <ele>37.15</ele>
        <time>2015-04-26T07:22:41Z</time>
      </trkpt>
      <trkpt lat="48.64661" lon="-2.45485">
        <ele>36.19</ele>
        <time>2015-04-26T07:22:48Z</time>
      </trkpt>
      <trkpt lat="48.64671" lon="-2.45471">
        <ele>35.71</ele>
        <time>2015-04-26T07:23:00Z</time>
      </trkpt>
      <trkpt lat="48.64675" lon="-2.45465">
        <ele>34.74</ele>
        <time>2015-04-26T07:23:06Z</time>
      </trkpt>
      <trkpt lat="48.64693" lon="-2.4544">
        <ele>31.38</ele>
        <time>2015-04-26T07:23:30Z</time>
      </trkpt>
      <trkpt lat="48.64694" lon="-2.45438">
        <ele>31.38</ele>
        <time>2015-04-26T07:23:31Z</time>
      </trkpt>
      <trkpt lat="48.64701" lon="-2.45432">
        <ele>30.9</ele>
        <time>2015-04-26T07:23:38Z</time>
      </trkpt>
      <trkpt lat="48.64718" lon="-2.45421">
        <ele>28.98</ele>
        <time>2015-04-26T07:23:53Z</time>
      </trkpt>
      <trkpt lat="48.64725" lon="-2.45418">
        <ele>28.5</ele>
        <time>2015-04-26T07:24:00Z</time>
      </trkpt>
      <trkpt lat="48.64731" lon="-2.45413">
        <ele>28.02</ele>
        <time>2015-04-26T07:24:07Z</time>
      </trkpt>
      <trkpt lat="48.64747" lon="-2.45395">
        <ele>26.09</ele>
        <time>2015-04-26T07:24:26Z</time>
      </trkpt>
      <trkpt lat="48.64752" lon="-2.45382">
        <ele>25.13</ele>
        <time>2015-04-26T07:24:48Z</time>
      </trkpt>
      <trkpt lat="48.64752" lon="-2.4538">
        <ele>24.17</ele>
        <time>2015-04-26T07:25:19Z</time>
      </trkpt>
      <trkpt lat="48.64752" lon="-2.4538">
        <ele>10.23</ele>
        <time>2015-04-26T07:25:28Z</time>
      </trkpt>
      <trkpt lat="48.64752" lon="-2.4538">
        <ele>10.23</ele>
        <time>2015-04-26T07:25:29Z</time>
      </trkpt>
      <trkpt lat="48.64752" lon="-2.45379">
        <ele>10.71</ele>
        <time>2015-04-26T07:25:34Z</time>
      </trkpt>
      <trkpt lat="48.64751" lon="-2.45374">
        <ele>6.87</ele>
        <time>2015-04-26T07:25:37Z</time>
      </trkpt>
      <trkpt lat="48.64751" lon="-2.45371">
        <ele>11.19</ele>
        <time>2015-04-26T07:25:39Z</time>
      </trkpt>
      <trkpt lat="48.64756" lon="-2.45361">
        <ele>9.75</ele>
        <time>2015-04-26T07:26:04Z</time>
      </trkpt>
      <trkpt lat="48.6476" lon="-2.4535">
        <ele>6.39</ele>
        <time>2015-04-26T07:26:18Z</time>
      </trkpt>
      <trkpt lat="48.6476" lon="-2.4535">
        <ele>11.19</ele>
        <time>2015-04-26T07:26:19Z</time>
      </trkpt>
      <trkpt lat="48.6476" lon="-2.4535">
        <ele>8.31</ele>
        <time>2015-04-26T07:26:21Z</time>
      </trkpt>
      <trkpt lat="48.6476" lon="-2.4535">
        <ele>3.98</ele>
        <time>2015-04-26T07:26:22Z</time>
      </trkpt>
      <trkpt lat="48.6476" lon="-2.4535">
        <ele>8.31</ele>
        <time>2015-04-26T07:26:23Z</time>
      </trkpt>
      <trkpt lat="48.6476" lon="-2.45347">
        <ele>7.35</ele>
        <time>2015-04-26T07:26:29Z</time>
      </trkpt>
      <trkpt lat="48.6476" lon="-2.45344">
        <ele>7.35</ele>
        <time>2015-04-26T07:26:46Z</time>
      </trkpt>
      <trkpt lat="48.64759" lon="-2.45344">
        <ele>7.35</ele>
        <time>2015-04-26T07:27:25Z</time>
      </trkpt>
      <trkpt lat="48.64758" lon="-2.45363">
        <ele>10.23</ele>
        <time>2015-04-26T07:27:40Z</time>
      </trkpt>
      <trkpt lat="48.64758" lon="-2.45365">
        <ele>9.75</ele>
        <time>2015-04-26T07:27:41Z</time>
      </trkpt>
      <trkpt lat="48.64754" lon="-2.4538">
        <ele>10.71</ele>
        <time>2015-04-26T07:27:53Z</time>
      </trkpt>
      <trkpt lat="48.64759" lon="-2.45378">
        <ele>11.19</ele>
        <time>2015-04-26T07:28:21Z</time>
      </trkpt>
      <trkpt lat="48.64758" lon="-2.45379">
        <ele>11.67</ele>
        <time>2015-04-26T07:28:47Z</time>
      </trkpt>
      <trkpt lat="48.64753" lon="-2.45382">
        <ele>11.67</ele>
        <time>2015-04-26T07:28:53Z</time>
      </trkpt>
      <trkpt lat="48.64752" lon="-2.45392">
        <ele>12.63</ele>
        <time>2015-04-26T07:29:11Z</time>
      </trkpt>
      <trkpt lat="48.64746" lon="-2.45393">
        <ele>14.56</ele>
        <time>2015-04-26T07:29:28Z</time>
      </trkpt>
      <trkpt lat="48.64746" lon="-2.45393">
        <ele>13.12</ele>
        <time>2015-04-26T07:29:35Z</time>
      </trkpt>
      <trkpt lat="48.64737" lon="-2.45404">
        <ele>14.08</ele>
        <time>2015-04-26T07:29:53Z</time>
      </trkpt>
      <trkpt lat="48.64724" lon="-2.45415">
        <ele>15.52</ele>
        <time>2015-04-26T07:30:10Z</time>
      </trkpt>
      <trkpt lat="48.64705" lon="-2.45426">
        <ele>17.92</ele>
        <time>2015-04-26T07:30:27Z</time>
      </trkpt>
      <trkpt lat="48.64689" lon="-2.45444">
        <ele>20.32</ele>
        <time>2015-04-26T07:30:48Z</time>
      </trkpt>
      <trkpt lat="48.64684" lon="-2.4545">
        <ele>20.81</ele>
        <time>2015-04-26T07:30:53Z</time>
      </trkpt>
      <trkpt lat="48.64675" lon="-2.45465">
        <ele>22.25</ele>
        <time>2015-04-26T07:31:05Z</time>
      </trkpt>
      <trkpt lat="48.64672" lon="-2.45476">
        <ele>22.73</ele>
        <time>2015-04-26T07:31:12Z</time>
      </trkpt>
      <trkpt lat="48.64656" lon="-2.45499">
        <ele>24.65</ele>
        <time>2015-04-26T07:31:33Z</time>
      </trkpt>
      <trkpt lat="48.64656" lon="-2.45501">
        <ele>25.13</ele>
        <time>2015-04-26T07:31:35Z</time>
      </trkpt>
      <trkpt lat="48.64654" lon="-2.45509">
        <ele>26.09</ele>
        <time>2015-04-26T07:31:50Z</time>
      </trkpt>
      <trkpt lat="48.6466" lon="-2.45519">
        <ele>28.98</ele>
        <time>2015-04-26T07:32:09Z</time>
      </trkpt>
      <trkpt lat="48.64673" lon="-2.45525">
        <ele>30.9</ele>
        <time>2015-04-26T07:32:27Z</time>
      </trkpt>
      <trkpt lat="48.64689" lon="-2.45512">
        <ele>31.86</ele>
        <time>2015-04-26T07:32:48Z</time>
      </trkpt>
      <trkpt lat="48.647" lon="-2.45495">
        <ele>32.82</ele>
        <time>2015-04-26T07:33:07Z</time>
      </trkpt>
      <trkpt lat="48.64706" lon="-2.45489">
        <ele>28.5</ele>
        <time>2015-04-26T07:33:15Z</time>
      </trkpt>
      <trkpt lat="48.64706" lon="-2.45488">
        <ele>40.03</ele>
        <time>2015-04-26T07:33:16Z</time>
      </trkpt>
      <trkpt lat="48.64707" lon="-2.45488">
        <ele>34.26</ele>
        <time>2015-04-26T07:33:17Z</time>
      </trkpt>
      <trkpt lat="48.64711" lon="-2.45484">
        <ele>29.94</ele>
        <time>2015-04-26T07:33:23Z</time>
      </trkpt>
      <trkpt lat="48.64712" lon="-2.45483">
        <ele>38.59</ele>
        <time>2015-04-26T07:33:24Z</time>
      </trkpt>
      <trkpt lat="48.64712" lon="-2.45483">
        <ele>37.15</ele>
        <time>2015-04-26T07:33:25Z</time>
      </trkpt>
      <trkpt lat="48.64713" lon="-2.45481">
        <ele>32.82</ele>
        <time>2015-04-26T07:33:27Z</time>
      </trkpt>
      <trkpt lat="48.64714" lon="-2.4548">
        <ele>20.32</ele>
        <time>2015-04-26T07:33:28Z</time>
      </trkpt>
      <trkpt lat="48.64714" lon="-2.4548">
        <ele>28.98</ele>
        <time>2015-04-26T07:33:29Z</time>
      </trkpt>
      <trkpt lat="48.64715" lon="-2.45479">
        <ele>36.67</ele>
        <time>2015-04-26T07:33:30Z</time>
      </trkpt>
      <trkpt lat="48.64716" lon="-2.45479">
        <ele>39.55</ele>
        <time>2015-04-26T07:33:31Z</time>
      </trkpt>
      <trkpt lat="48.64717" lon="-2.45478">
        <ele>34.26</ele>
        <time>2015-04-26T07:33:33Z</time>
      </trkpt>
      <trkpt lat="48.64718" lon="-2.45477">
        <ele>38.59</ele>
        <time>2015-04-26T07:33:38Z</time>
      </trkpt>
      <trkpt lat="48.64718" lon="-2.45476">
        <ele>35.23</ele>
        <time>2015-04-26T07:33:39Z</time>
      </trkpt>
      <trkpt lat="48.64721" lon="-2.45474">
        <ele>30.42</ele>
        <time>2015-04-26T07:33:43Z</time>
      </trkpt>
      <trkpt lat="48.64722" lon="-2.45473">
        <ele>34.74</ele>
        <time>2015-04-26T07:33:44Z</time>
      </trkpt>
      <trkpt lat="48.64723" lon="-2.45473">
        <ele>34.74</ele>
        <time>2015-04-26T07:33:45Z</time>
      </trkpt>
      <trkpt lat="48.64739" lon="-2.45461">
        <ele>35.23</ele>
        <time>2015-04-26T07:34:05Z</time>
      </trkpt>
      <trkpt lat="48.64755" lon="-2.45465">
        <ele>35.23</ele>
        <time>2015-04-26T07:34:22Z</time>
      </trkpt>
      <trkpt lat="48.64764" lon="-2.45466">
        <ele>26.09</ele>
        <time>2015-04-26T07:34:33Z</time>
      </trkpt>
      <trkpt lat="48.64765" lon="-2.45474">
        <ele>34.26</ele>
        <time>2015-04-26T07:34:41Z</time>
      </trkpt>
      <trkpt lat="48.64765" lon="-2.45478">
        <ele>34.74</ele>
        <time>2015-04-26T07:34:43Z</time>
      </trkpt>
      <trkpt lat="48.64764" lon="-2.45482">
        <ele>33.78</ele>
        <time>2015-04-26T07:34:46Z</time>
      </trkpt>
      <trkpt lat="48.64762" lon="-2.45499">
        <ele>34.26</ele>
        <time>2015-04-26T07:34:56Z</time>
      </trkpt>
      <trkpt lat="48.64763" lon="-2.45502">
        <ele>34.26</ele>
        <time>2015-04-26T07:34:58Z</time>
      </trkpt>
      <trkpt lat="48.64762" lon="-2.45506">
        <ele>34.26</ele>
        <time>2015-04-26T07:35:01Z</time>
      </trkpt>
      <trkpt lat="48.64763" lon="-2.4551">
        <ele>34.26</ele>
        <time>2015-04-26T07:35:03Z</time>
      </trkpt>
      <trkpt lat="48.6476" lon="-2.45525">
        <ele>33.3</ele>
        <time>2015-04-26T07:35:13Z</time>
      </trkpt>
      <trkpt lat="48.64759" lon="-2.4553">
        <ele>33.3</ele>
        <time>2015-04-26T07:35:16Z</time>
      </trkpt>
      <trkpt lat="48.64765" lon="-2.45556">
        <ele>33.3</ele>
        <time>2015-04-26T07:35:34Z</time>
      </trkpt>
      <trkpt lat="48.64767" lon="-2.45562">
        <ele>33.78</ele>
        <time>2015-04-26T07:35:41Z</time>
      </trkpt>
      <trkpt lat="48.64773" lon="-2.45585">
        <ele>34.26</ele>
        <time>2015-04-26T07:35:58Z</time>
      </trkpt>
      <trkpt lat="48.64774" lon="-2.45607">
        <ele>35.71</ele>
        <time>2015-04-26T07:36:16Z</time>
      </trkpt>
      <trkpt lat="48.64774" lon="-2.4561">
        <ele>35.71</ele>
        <time>2015-04-26T07:36:18Z</time>
      </trkpt>
      <trkpt lat="48.64774" lon="-2.45614">
        <ele>35.71</ele>
        <time>2015-04-26T07:36:20Z</time>
      </trkpt>
      <trkpt lat="48.64776" lon="-2.45623">
        <ele>36.67</ele>
        <time>2015-04-26T07:36:26Z</time>
      </trkpt>
      <trkpt lat="48.64779" lon="-2.45641">
        <ele>38.11</ele>
        <time>2015-04-26T07:36:41Z</time>
      </trkpt>
      <trkpt lat="48.64787" lon="-2.45662">
        <ele>39.55</ele>
        <time>2015-04-26T07:37:00Z</time>
      </trkpt>
      <trkpt lat="48.64789" lon="-2.45677">
        <ele>39.55</ele>
        <time>2015-04-26T07:37:14Z</time>
      </trkpt>
      <trkpt lat="48.6479" lon="-2.45686">
        <ele>39.55</ele>
        <time>2015-04-26T07:37:19Z</time>
      </trkpt>
      <trkpt lat="48.64791" lon="-2.45694">
        <ele>39.07</ele>
        <time>2015-04-26T07:37:24Z</time>
      </trkpt>
      <trkpt lat="48.64799" lon="-2.45719">
        <ele>39.55</ele>
        <time>2015-04-26T07:37:43Z</time>
      </trkpt>
      <trkpt lat="48.64803" lon="-2.45731">
        <ele>40.03</ele>
        <time>2015-04-26T07:37:53Z</time>
      </trkpt>
      <trkpt lat="48.64804" lon="-2.45736">
        <ele>40.51</ele>
        <time>2015-04-26T07:37:56Z</time>
      </trkpt>
      <trkpt lat="48.64804" lon="-2.45748">
        <ele>40.51</ele>
        <time>2015-04-26T07:38:03Z</time>
      </trkpt>
      <trkpt lat="48.64804" lon="-2.45755">
        <ele>40.99</ele>
        <time>2015-04-26T07:38:07Z</time>
      </trkpt>
      <trkpt lat="48.64801" lon="-2.4579">
        <ele>40.99</ele>
        <time>2015-04-26T07:38:28Z</time>
      </trkpt>
      <trkpt lat="48.64798" lon="-2.45813">
        <ele>39.55</ele>
        <time>2015-04-26T07:38:42Z</time>
      </trkpt>
      <trkpt lat="48.64798" lon="-2.45821">
        <ele>39.55</ele>
        <time>2015-04-26T07:38:47Z</time>
      </trkpt>
      <trkpt lat="48.64798" lon="-2.45823">
        <ele>39.55</ele>
        <time>2015-04-26T07:38:49Z</time>
      </trkpt>
      <trkpt lat="48.64798" lon="-2.45828">
        <ele>38.11</ele>
        <time>2015-04-26T07:38:52Z</time>
      </trkpt>
      <trkpt lat="48.64796" lon="-2.45846">
        <ele>36.67</ele>
        <time>2015-04-26T07:39:11Z</time>
      </trkpt>
      <trkpt lat="48.64796" lon="-2.45863">
        <ele>35.23</ele>
        <time>2015-04-26T07:39:30Z</time>
      </trkpt>
      <trkpt lat="48.64796" lon="-2.45865">
        <ele>34.74</ele>
        <time>2015-04-26T07:39:32Z</time>
      </trkpt>
      <trkpt lat="48.64796" lon="-2.45881">
        <ele>33.3</ele>
        <time>2015-04-26T07:39:49Z</time>
      </trkpt>
      <trkpt lat="48.64797" lon="-2.45891">
        <ele>31.86</ele>
        <time>2015-04-26T07:40:00Z</time>
      </trkpt>
      <trkpt lat="48.64798" lon="-2.4591">
        <ele>29.46</ele>
        <time>2015-04-26T07:40:17Z</time>
      </trkpt>
      <trkpt lat="48.64786" lon="-2.45922">
        <ele>29.46</ele>
        <time>2015-04-26T07:40:33Z</time>
      </trkpt>
      <trkpt lat="48.64785" lon="-2.4592">
        <ele>28.98</ele>
        <time>2015-04-26T07:40:35Z</time>
      </trkpt>
      <trkpt lat="48.64763" lon="-2.45921">
        <ele>30.9</ele>
        <time>2015-04-26T07:40:56Z</time>
      </trkpt>
      <trkpt lat="48.64746" lon="-2.45932">
        <ele>29.94</ele>
        <time>2015-04-26T07:41:16Z</time>
      </trkpt>
      <trkpt lat="48.64735" lon="-2.45936">
        <ele>29.94</ele>
        <time>2015-04-26T07:41:34Z</time>
      </trkpt>
      <trkpt lat="48.64739" lon="-2.45948">
        <ele>28.02</ele>
        <time>2015-04-26T07:41:50Z</time>
      </trkpt>
      <trkpt lat="48.64743" lon="-2.45954">
        <ele>24.65</ele>
        <time>2015-04-26T07:42:08Z</time>
      </trkpt>
      <trkpt lat="48.64743" lon="-2.45955">
        <ele>24.65</ele>
        <time>2015-04-26T07:42:12Z</time>
      </trkpt>
      <trkpt lat="48.64743" lon="-2.45968">
        <ele>21.77</ele>
        <time>2015-04-26T07:42:32Z</time>
      </trkpt>
      <trkpt lat="48.64745" lon="-2.45977">
        <ele>19.84</ele>
        <time>2015-04-26T07:42:48Z</time>
      </trkpt>
      <trkpt lat="48.64747" lon="-2.45987">
        <ele>17.92</ele>
        <time>2015-04-26T07:43:05Z</time>
      </trkpt>
      <trkpt lat="48.64754" lon="-2.46008">
        <ele>15.52</ele>
        <time>2015-04-26T07:43:24Z</time>
      </trkpt>
      <trkpt lat="48.64757" lon="-2.46021">
        <ele>13.6</ele>
        <time>2015-04-26T07:43:40Z</time>
      </trkpt>
      <trkpt lat="48.64759" lon="-2.46033">
        <ele>12.15</ele>
        <time>2015-04-26T07:43:54Z</time>
      </trkpt>
      <trkpt lat="48.64755" lon="-2.46062">
        <ele>11.19</ele>
        <time>2015-04-26T07:44:15Z</time>
      </trkpt>
      <trkpt lat="48.64752" lon="-2.46068">
        <ele>12.15</ele>
        <time>2015-04-26T07:44:20Z</time>
      </trkpt>
      <trkpt lat="48.64741" lon="-2.46079">
        <ele>13.12</ele>
        <time>2015-04-26T07:44:34Z</time>
      </trkpt>
      <trkpt lat="48.64738" lon="-2.46086">
        <ele>12.15</ele>
        <time>2015-04-26T07:44:39Z</time>
      </trkpt>
      <trkpt lat="48.64731" lon="-2.46104">
        <ele>11.19</ele>
        <time>2015-04-26T07:44:56Z</time>
      </trkpt>
      <trkpt lat="48.64736" lon="-2.46121">
        <ele>9.27</ele>
        <time>2015-04-26T07:45:09Z</time>
      </trkpt>
      <trkpt lat="48.6474" lon="-2.46131">
        <ele>9.27</ele>
        <time>2015-04-26T07:45:17Z</time>
      </trkpt>
      <trkpt lat="48.64742" lon="-2.46134">
        <ele>9.75</ele>
        <time>2015-04-26T07:45:21Z</time>
      </trkpt>
      <trkpt lat="48.64742" lon="-2.46139">
        <ele>10.71</ele>
        <time>2015-04-26T07:45:25Z</time>
      </trkpt>
      <trkpt lat="48.64743" lon="-2.46147">
        <ele>11.67</ele>
        <time>2015-04-26T07:45:30Z</time>
      </trkpt>
      <trkpt lat="48.64745" lon="-2.46171">
        <ele>11.67</ele>
        <time>2015-04-26T07:45:49Z</time>
      </trkpt>
      <trkpt lat="48.64749" lon="-2.46173">
        <ele>10.23</ele>
        <time>2015-04-26T07:46:03Z</time>
      </trkpt>
      <trkpt lat="48.64749" lon="-2.46173">
        <ele>10.23</ele>
        <time>2015-04-26T07:47:23Z</time>
      </trkpt>
      <trkpt lat="48.64748" lon="-2.46172">
        <ele>11.67</ele>
        <time>2015-04-26T07:48:12Z</time>
      </trkpt>
      <trkpt lat="48.64748" lon="-2.46172">
        <ele>12.63</ele>
        <time>2015-04-26T07:48:35Z</time>
      </trkpt>
      <trkpt lat="48.64747" lon="-2.46171">
        <ele>12.63</ele>
        <time>2015-04-26T07:49:20Z</time>
      </trkpt>
      <trkpt lat="48.64748" lon="-2.46173">
        <ele>12.15</ele>
        <time>2015-04-26T07:50:11Z</time>
      </trkpt>
      <trkpt lat="48.6475" lon="-2.46175">
        <ele>12.15</ele>
        <time>2015-04-26T07:50:43Z</time>
      </trkpt>
      <trkpt lat="48.6475" lon="-2.46176">
        <ele>12.63</ele>
        <time>2015-04-26T07:52:14Z</time>
      </trkpt>
      <trkpt lat="48.64744" lon="-2.46181">
        <ele>13.12</ele>
        <time>2015-04-26T07:52:34Z</time>
      </trkpt>
      <trkpt lat="48.64744" lon="-2.46181">
        <ele>13.12</ele>
        <time>2015-04-26T07:53:35Z</time>
      </trkpt>
      <trkpt lat="48.64745" lon="-2.46186">
        <ele>13.12</ele>
        <time>2015-04-26T07:53:38Z</time>
      </trkpt>
      <trkpt lat="48.64745" lon="-2.46202">
        <ele>13.12</ele>
        <time>2015-04-26T07:53:47Z</time>
      </trkpt>
      <trkpt lat="48.64744" lon="-2.46213">
        <ele>12.63</ele>
        <time>2015-04-26T07:53:53Z</time>
      </trkpt>
      <trkpt lat="48.64745" lon="-2.4622">
        <ele>13.6</ele>
        <time>2015-04-26T07:53:57Z</time>
      </trkpt>
      <trkpt lat="48.64745" lon="-2.46235">
        <ele>13.6</ele>
        <time>2015-04-26T07:54:06Z</time>
      </trkpt>
      <trkpt lat="48.64745" lon="-2.46239">
        <ele>13.6</ele>
        <time>2015-04-26T07:54:08Z</time>
      </trkpt>
      <trkpt lat="48.64745" lon="-2.46257">
        <ele>15.52</ele>
        <time>2015-04-26T07:54:19Z</time>
      </trkpt>
      <trkpt lat="48.64746" lon="-2.46263">
        <ele>16</ele>
        <time>2015-04-26T07:54:23Z</time>
      </trkpt>
      <trkpt lat="48.64745" lon="-2.46266">
        <ele>16</ele>
        <time>2015-04-26T07:54:25Z</time>
      </trkpt>
      <trkpt lat="48.64746" lon="-2.46283">
        <ele>16</ele>
        <time>2015-04-26T07:54:35Z</time>
      </trkpt>
      <trkpt lat="48.64747" lon="-2.46291">
        <ele>15.04</ele>
        <time>2015-04-26T07:54:40Z</time>
      </trkpt>
      <trkpt lat="48.64744" lon="-2.46293">
        <ele>15.52</ele>
        <time>2015-04-26T07:54:43Z</time>
      </trkpt>
      <trkpt lat="48.64737" lon="-2.46296">
        <ele>16.96</ele>
        <time>2015-04-26T07:54:49Z</time>
      </trkpt>
      <trkpt lat="48.64733" lon="-2.463">
        <ele>18.4</ele>
        <time>2015-04-26T07:54:54Z</time>
      </trkpt>
      <trkpt lat="48.64726" lon="-2.46305">
        <ele>20.81</ele>
        <time>2015-04-26T07:55:03Z</time>
      </trkpt>
      <trkpt lat="48.64722" lon="-2.46313">
        <ele>23.21</ele>
        <time>2015-04-26T07:55:10Z</time>
      </trkpt>
      <trkpt lat="48.64716" lon="-2.46317">
        <ele>26.57</ele>
        <time>2015-04-26T07:55:19Z</time>
      </trkpt>
      <trkpt lat="48.64713" lon="-2.46321">
        <ele>28.02</ele>
        <time>2015-04-26T07:55:24Z</time>
      </trkpt>
      <trkpt lat="48.64711" lon="-2.46324">
        <ele>29.46</ele>
        <time>2015-04-26T07:55:27Z</time>
      </trkpt>
      <trkpt lat="48.64706" lon="-2.4633">
        <ele>32.34</ele>
        <time>2015-04-26T07:55:37Z</time>
      </trkpt>
      <trkpt lat="48.64701" lon="-2.46335">
        <ele>35.23</ele>
        <time>2015-04-26T07:55:48Z</time>
      </trkpt>
      <trkpt lat="48.64697" lon="-2.46339">
        <ele>37.15</ele>
        <time>2015-04-26T07:55:54Z</time>
      </trkpt>
      <trkpt lat="48.64688" lon="-2.46348">
        <ele>40.51</ele>
        <time>2015-04-26T07:56:08Z</time>
      </trkpt>
      <trkpt lat="48.64686" lon="-2.4635">
        <ele>40.99</ele>
        <time>2015-04-26T07:56:29Z</time>
      </trkpt>
      <trkpt lat="48.64682" lon="-2.46361">
        <ele>41.47</ele>
        <time>2015-04-26T07:56:46Z</time>
      </trkpt>
      <trkpt lat="48.64681" lon="-2.46359">
        <ele>40.99</ele>
        <time>2015-04-26T07:57:35Z</time>
      </trkpt>
      <trkpt lat="48.64682" lon="-2.46358">
        <ele>35.71</ele>
        <time>2015-04-26T07:58:30Z</time>
      </trkpt>
      <trkpt lat="48.64682" lon="-2.46358">
        <ele>40.03</ele>
        <time>2015-04-26T07:58:31Z</time>
      </trkpt>
      <trkpt lat="48.64682" lon="-2.46358">
        <ele>41.47</ele>
        <time>2015-04-26T07:58:33Z</time>
      </trkpt>
      <trkpt lat="48.64682" lon="-2.46359">
        <ele>40.51</ele>
        <time>2015-04-26T08:00:08Z</time>
      </trkpt>
      <trkpt lat="48.64687" lon="-2.46369">
        <ele>40.51</ele>
        <time>2015-04-26T08:00:24Z</time>
      </trkpt>
      <trkpt lat="48.64692" lon="-2.4638">
        <ele>40.03</ele>
        <time>2015-04-26T08:00:33Z</time>
      </trkpt>
      <trkpt lat="48.64702" lon="-2.46385">
        <ele>39.07</ele>
        <time>2015-04-26T08:00:53Z</time>
      </trkpt>
      <trkpt lat="48.64703" lon="-2.46385">
        <ele>39.07</ele>
        <time>2015-04-26T08:00:54Z</time>
      </trkpt>
      <trkpt lat="48.64709" lon="-2.46385">
        <ele>38.11</ele>
        <time>2015-04-26T08:01:00Z</time>
      </trkpt>
      <trkpt lat="48.64712" lon="-2.46386">
        <ele>38.11</ele>
        <time>2015-04-26T08:01:03Z</time>
      </trkpt>
      <trkpt lat="48.6472" lon="-2.46392">
        <ele>39.07</ele>
        <time>2015-04-26T08:01:12Z</time>
      </trkpt>
      <trkpt lat="48.64721" lon="-2.46395">
        <ele>39.55</ele>
        <time>2015-04-26T08:01:14Z</time>
      </trkpt>
      <trkpt lat="48.64742" lon="-2.46406">
        <ele>39.07</ele>
        <time>2015-04-26T08:01:35Z</time>
      </trkpt>
      <trkpt lat="48.64745" lon="-2.46408">
        <ele>39.07</ele>
        <time>2015-04-26T08:01:38Z</time>
      </trkpt>
      <trkpt lat="48.6476" lon="-2.46413">
        <ele>38.59</ele>
        <time>2015-04-26T08:01:53Z</time>
      </trkpt>
      <trkpt lat="48.64774" lon="-2.46414">
        <ele>38.59</ele>
        <time>2015-04-26T08:02:06Z</time>
      </trkpt>
      <trkpt lat="48.64775" lon="-2.46416">
        <ele>38.11</ele>
        <time>2015-04-26T08:02:08Z</time>
      </trkpt>
      <trkpt lat="48.64781" lon="-2.46422">
        <ele>38.11</ele>
        <time>2015-04-26T08:02:15Z</time>
      </trkpt>
      <trkpt lat="48.64783" lon="-2.46424">
        <ele>38.11</ele>
        <time>2015-04-26T08:02:17Z</time>
      </trkpt>
      <trkpt lat="48.64788" lon="-2.4643">
        <ele>37.63</ele>
        <time>2015-04-26T08:02:23Z</time>
      </trkpt>
      <trkpt lat="48.64801" lon="-2.46445">
        <ele>37.15</ele>
        <time>2015-04-26T08:02:40Z</time>
      </trkpt>
      <trkpt lat="48.64805" lon="-2.46454">
        <ele>30.9</ele>
        <time>2015-04-26T08:03:32Z</time>
      </trkpt>
      <trkpt lat="48.64832" lon="-2.46482">
        <ele>28.02</ele>
        <time>2015-04-26T08:03:33Z</time>
      </trkpt>
      <trkpt lat="48.64834" lon="-2.46483">
        <ele>31.86</ele>
        <time>2015-04-26T08:03:35Z</time>
      </trkpt>
      <trkpt lat="48.64846" lon="-2.46498">
        <ele>33.78</ele>
        <time>2015-04-26T08:03:51Z</time>
      </trkpt>
      <trkpt lat="48.64858" lon="-2.46509">
        <ele>35.71</ele>
        <time>2015-04-26T08:04:05Z</time>
      </trkpt>
      <trkpt lat="48.64867" lon="-2.46511">
        <ele>34.74</ele>
        <time>2015-04-26T08:04:14Z</time>
      </trkpt>
      <trkpt lat="48.6487" lon="-2.46514">
        <ele>34.74</ele>
        <time>2015-04-26T08:04:17Z</time>
      </trkpt>
      <trkpt lat="48.6487" lon="-2.4652">
        <ele>35.23</ele>
        <time>2015-04-26T08:04:21Z</time>
      </trkpt>
      <trkpt lat="48.64871" lon="-2.46549">
        <ele>35.71</ele>
        <time>2015-04-26T08:04:41Z</time>
      </trkpt>
      <trkpt lat="48.64871" lon="-2.46554">
        <ele>36.19</ele>
        <time>2015-04-26T08:04:44Z</time>
      </trkpt>
      <trkpt lat="48.64872" lon="-2.46566">
        <ele>35.71</ele>
        <time>2015-04-26T08:04:53Z</time>
      </trkpt>
      <trkpt lat="48.64873" lon="-2.46576">
        <ele>35.71</ele>
        <time>2015-04-26T08:05:00Z</time>
      </trkpt>
      <trkpt lat="48.64874" lon="-2.46585">
        <ele>35.71</ele>
        <time>2015-04-26T08:05:06Z</time>
      </trkpt>
      <trkpt lat="48.64874" lon="-2.46592">
        <ele>36.19</ele>
        <time>2015-04-26T08:05:11Z</time>
      </trkpt>
      <trkpt lat="48.64876" lon="-2.46614">
        <ele>35.23</ele>
        <time>2015-04-26T08:05:30Z</time>
      </trkpt>
      <trkpt lat="48.64882" lon="-2.46632">
        <ele>34.26</ele>
        <time>2015-04-26T08:05:47Z</time>
      </trkpt>
      <trkpt lat="48.64896" lon="-2.46659">
        <ele>33.78</ele>
        <time>2015-04-26T08:06:09Z</time>
      </trkpt>
      <trkpt lat="48.64896" lon="-2.46661">
        <ele>33.78</ele>
        <time>2015-04-26T08:06:10Z</time>
      </trkpt>
      <trkpt lat="48.64904" lon="-2.46681">
        <ele>34.26</ele>
        <time>2015-04-26T08:06:25Z</time>
      </trkpt>
      <trkpt lat="48.64909" lon="-2.46702">
        <ele>33.78</ele>
        <time>2015-04-26T08:06:38Z</time>
      </trkpt>
      <trkpt lat="48.64914" lon="-2.46715">
        <ele>34.26</ele>
        <time>2015-04-26T08:06:48Z</time>
      </trkpt>
      <trkpt lat="48.64917" lon="-2.46719">
        <ele>34.26</ele>
        <time>2015-04-26T08:06:53Z</time>
      </trkpt>
      <trkpt lat="48.64928" lon="-2.46727">
        <ele>33.3</ele>
        <time>2015-04-26T08:07:11Z</time>
      </trkpt>
      <trkpt lat="48.64934" lon="-2.46735">
        <ele>32.34</ele>
        <time>2015-04-26T08:07:28Z</time>
      </trkpt>
      <trkpt lat="48.64934" lon="-2.46735">
        <ele>31.38</ele>
        <time>2015-04-26T08:07:50Z</time>
      </trkpt>
      <trkpt lat="48.64936" lon="-2.46737">
        <ele>31.38</ele>
        <time>2015-04-26T08:09:27Z</time>
      </trkpt>
      <trkpt lat="48.64936" lon="-2.46737">
        <ele>31.38</ele>
        <time>2015-04-26T08:09:29Z</time>
      </trkpt>
      <trkpt lat="48.64927" lon="-2.46743">
        <ele>32.82</ele>
        <time>2015-04-26T08:09:46Z</time>
      </trkpt>
      <trkpt lat="48.64917" lon="-2.46753">
        <ele>33.78</ele>
        <time>2015-04-26T08:10:02Z</time>
      </trkpt>
      <trkpt lat="48.64913" lon="-2.46755">
        <ele>33.3</ele>
        <time>2015-04-26T08:10:13Z</time>
      </trkpt>
      <trkpt lat="48.64911" lon="-2.46758">
        <ele>33.78</ele>
        <time>2015-04-26T08:10:16Z</time>
      </trkpt>
      <trkpt lat="48.64909" lon="-2.46758">
        <ele>34.26</ele>
        <time>2015-04-26T08:10:18Z</time>
      </trkpt>
      <trkpt lat="48.64902" lon="-2.46764">
        <ele>34.74</ele>
        <time>2015-04-26T08:10:26Z</time>
      </trkpt>
      <trkpt lat="48.64892" lon="-2.46769">
        <ele>36.19</ele>
        <time>2015-04-26T08:10:39Z</time>
      </trkpt>
      <trkpt lat="48.64887" lon="-2.46767">
        <ele>37.15</ele>
        <time>2015-04-26T08:10:46Z</time>
      </trkpt>
      <trkpt lat="48.64871" lon="-2.46766">
        <ele>36.67</ele>
        <time>2015-04-26T08:11:06Z</time>
      </trkpt>
      <trkpt lat="48.6486" lon="-2.46768">
        <ele>36.67</ele>
        <time>2015-04-26T08:11:15Z</time>
      </trkpt>
      <trkpt lat="48.64858" lon="-2.46769">
        <ele>36.19</ele>
        <time>2015-04-26T08:11:17Z</time>
      </trkpt>
      <trkpt lat="48.64849" lon="-2.46772">
        <ele>36.67</ele>
        <time>2015-04-26T08:11:33Z</time>
      </trkpt>
      <trkpt lat="48.64834" lon="-2.46779">
        <ele>38.11</ele>
        <time>2015-04-26T08:11:53Z</time>
      </trkpt>
      <trkpt lat="48.64831" lon="-2.46783">
        <ele>38.11</ele>
        <time>2015-04-26T08:11:58Z</time>
      </trkpt>
      <trkpt lat="48.64828" lon="-2.46788">
        <ele>38.59</ele>
        <time>2015-04-26T08:12:02Z</time>
      </trkpt>
      <trkpt lat="48.64827" lon="-2.46791">
        <ele>38.59</ele>
        <time>2015-04-26T08:12:04Z</time>
      </trkpt>
      <trkpt lat="48.64822" lon="-2.46811">
        <ele>38.11</ele>
        <time>2015-04-26T08:12:19Z</time>
      </trkpt>
      <trkpt lat="48.6482" lon="-2.46826">
        <ele>39.07</ele>
        <time>2015-04-26T08:12:31Z</time>
      </trkpt>
      <trkpt lat="48.64819" lon="-2.46852">
        <ele>40.03</ele>
        <time>2015-04-26T08:12:50Z</time>
      </trkpt>
      <trkpt lat="48.64819" lon="-2.46856">
        <ele>40.03</ele>
        <time>2015-04-26T08:12:55Z</time>
      </trkpt>
      <trkpt lat="48.64818" lon="-2.46862">
        <ele>40.03</ele>
        <time>2015-04-26T08:13:11Z</time>
      </trkpt>
      <trkpt lat="48.64817" lon="-2.46888">
        <ele>40.51</ele>
        <time>2015-04-26T08:13:28Z</time>
      </trkpt>
      <trkpt lat="48.64817" lon="-2.46901">
        <ele>40.99</ele>
        <time>2015-04-26T08:13:36Z</time>
      </trkpt>
      <trkpt lat="48.64812" lon="-2.4693">
        <ele>40.03</ele>
        <time>2015-04-26T08:13:58Z</time>
      </trkpt>
      <trkpt lat="48.64809" lon="-2.46934">
        <ele>40.51</ele>
        <time>2015-04-26T08:14:06Z</time>
      </trkpt>
      <trkpt lat="48.64805" lon="-2.46937">
        <ele>40.51</ele>
        <time>2015-04-26T08:14:10Z</time>
      </trkpt>
      <trkpt lat="48.64802" lon="-2.46942">
        <ele>40.51</ele>
        <time>2015-04-26T08:14:15Z</time>
      </trkpt>
      <trkpt lat="48.64797" lon="-2.46953">
        <ele>39.55</ele>
        <time>2015-04-26T08:14:25Z</time>
      </trkpt>
      <trkpt lat="48.64788" lon="-2.46969">
        <ele>39.07</ele>
        <time>2015-04-26T08:14:41Z</time>
      </trkpt>
      <trkpt lat="48.64786" lon="-2.46971">
        <ele>39.07</ele>
        <time>2015-04-26T08:14:44Z</time>
      </trkpt>
      <trkpt lat="48.64781" lon="-2.46974">
        <ele>39.07</ele>
        <time>2015-04-26T08:14:49Z</time>
      </trkpt>
      <trkpt lat="48.64755" lon="-2.4698">
        <ele>38.11</ele>
        <time>2015-04-26T08:15:14Z</time>
      </trkpt>
      <trkpt lat="48.64751" lon="-2.46982">
        <ele>37.63</ele>
        <time>2015-04-26T08:15:18Z</time>
      </trkpt>
      <trkpt lat="48.64735" lon="-2.46988">
        <ele>37.63</ele>
        <time>2015-04-26T08:15:38Z</time>
      </trkpt>
      <trkpt lat="48.64729" lon="-2.46991">
        <ele>37.63</ele>
        <time>2015-04-26T08:15:45Z</time>
      </trkpt>
      <trkpt lat="48.64722" lon="-2.46993">
        <ele>36.67</ele>
        <time>2015-04-26T08:15:51Z</time>
      </trkpt>
      <trkpt lat="48.64709" lon="-2.47007">
        <ele>36.67</ele>
        <time>2015-04-26T08:16:03Z</time>
      </trkpt>
      <trkpt lat="48.64703" lon="-2.47012">
        <ele>36.67</ele>
        <time>2015-04-26T08:16:09Z</time>
      </trkpt>
      <trkpt lat="48.64689" lon="-2.47023">
        <ele>37.63</ele>
        <time>2015-04-26T08:16:23Z</time>
      </trkpt>
      <trkpt lat="48.64667" lon="-2.47033">
        <ele>38.59</ele>
        <time>2015-04-26T08:16:45Z</time>
      </trkpt>
      <trkpt lat="48.64666" lon="-2.47034">
        <ele>38.59</ele>
        <time>2015-04-26T08:16:46Z</time>
      </trkpt>
      <trkpt lat="48.64643" lon="-2.47045">
        <ele>39.55</ele>
        <time>2015-04-26T08:17:10Z</time>
      </trkpt>
      <trkpt lat="48.64637" lon="-2.4705">
        <ele>40.03</ele>
        <time>2015-04-26T08:17:17Z</time>
      </trkpt>
      <trkpt lat="48.64635" lon="-2.47051">
        <ele>39.55</ele>
        <time>2015-04-26T08:17:19Z</time>
      </trkpt>
      <trkpt lat="48.64615" lon="-2.47068">
        <ele>40.03</ele>
        <time>2015-04-26T08:17:40Z</time>
      </trkpt>
      <trkpt lat="48.646" lon="-2.47086">
        <ele>39.55</ele>
        <time>2015-04-26T08:18:00Z</time>
      </trkpt>
      <trkpt lat="48.64598" lon="-2.47092">
        <ele>39.07</ele>
        <time>2015-04-26T08:18:08Z</time>
      </trkpt>
      <trkpt lat="48.64584" lon="-2.47117">
        <ele>39.07</ele>
        <time>2015-04-26T08:18:29Z</time>
      </trkpt>
      <trkpt lat="48.64571" lon="-2.47141">
        <ele>39.07</ele>
        <time>2015-04-26T08:18:49Z</time>
      </trkpt>
      <trkpt lat="48.64563" lon="-2.47161">
        <ele>38.59</ele>
        <time>2015-04-26T08:19:06Z</time>
      </trkpt>
      <trkpt lat="48.64556" lon="-2.47173">
        <ele>39.55</ele>
        <time>2015-04-26T08:19:17Z</time>
      </trkpt>
      <trkpt lat="48.64551" lon="-2.47176">
        <ele>40.03</ele>
        <time>2015-04-26T08:19:22Z</time>
      </trkpt>
      <trkpt lat="48.64539" lon="-2.47191">
        <ele>39.55</ele>
        <time>2015-04-26T08:19:41Z</time>
      </trkpt>
      <trkpt lat="48.64537" lon="-2.47191">
        <ele>40.03</ele>
        <time>2015-04-26T08:19:44Z</time>
      </trkpt>
      <trkpt lat="48.64526" lon="-2.47185">
        <ele>40.51</ele>
        <time>2015-04-26T08:20:01Z</time>
      </trkpt>
      <trkpt lat="48.64524" lon="-2.47184">
        <ele>40.51</ele>
        <time>2015-04-26T08:20:03Z</time>
      </trkpt>
      <trkpt lat="48.6451" lon="-2.47177">
        <ele>41.47</ele>
        <time>2015-04-26T08:20:23Z</time>
      </trkpt>
      <trkpt lat="48.64505" lon="-2.47176">
        <ele>41.47</ele>
        <time>2015-04-26T08:20:28Z</time>
      </trkpt>
      <trkpt lat="48.64499" lon="-2.47181">
        <ele>41.47</ele>
        <time>2015-04-26T08:20:35Z</time>
      </trkpt>
      <trkpt lat="48.64494" lon="-2.47185">
        <ele>41.95</ele>
        <time>2015-04-26T08:20:41Z</time>
      </trkpt>
      <trkpt lat="48.64487" lon="-2.47194">
        <ele>42.44</ele>
        <time>2015-04-26T08:20:49Z</time>
      </trkpt>
      <trkpt lat="48.64469" lon="-2.4722">
        <ele>41.95</ele>
        <time>2015-04-26T08:21:10Z</time>
      </trkpt>
      <trkpt lat="48.64463" lon="-2.47227">
        <ele>41.47</ele>
        <time>2015-04-26T08:21:18Z</time>
      </trkpt>
      <trkpt lat="48.64453" lon="-2.47248">
        <ele>40.99</ele>
        <time>2015-04-26T08:21:37Z</time>
      </trkpt>
      <trkpt lat="48.64453" lon="-2.47252">
        <ele>40.51</ele>
        <time>2015-04-26T08:21:58Z</time>
      </trkpt>
      <trkpt lat="48.64453" lon="-2.47252">
        <ele>39.55</ele>
        <time>2015-04-26T08:22:22Z</time>
      </trkpt>
      <trkpt lat="48.64453" lon="-2.47253">
        <ele>38.11</ele>
        <time>2015-04-26T08:22:41Z</time>
      </trkpt>
      <trkpt lat="48.64455" lon="-2.47263">
        <ele>35.71</ele>
        <time>2015-04-26T08:23:04Z</time>
      </trkpt>
      <trkpt lat="48.6446" lon="-2.47281">
        <ele>33.3</ele>
        <time>2015-04-26T08:23:20Z</time>
      </trkpt>
      <trkpt lat="48.64463" lon="-2.473">
        <ele>30.9</ele>
        <time>2015-04-26T08:23:39Z</time>
      </trkpt>
      <trkpt lat="48.64466" lon="-2.47311">
        <ele>28.02</ele>
        <time>2015-04-26T08:23:57Z</time>
      </trkpt>
      <trkpt lat="48.64472" lon="-2.47325">
        <ele>24.65</ele>
        <time>2015-04-26T08:24:17Z</time>
      </trkpt>
      <trkpt lat="48.64477" lon="-2.47334">
        <ele>22.73</ele>
        <time>2015-04-26T08:24:32Z</time>
      </trkpt>
      <trkpt lat="48.64483" lon="-2.47345">
        <ele>20.32</ele>
        <time>2015-04-26T08:24:49Z</time>
      </trkpt>
      <trkpt lat="48.6449" lon="-2.47355">
        <ele>17.92</ele>
        <time>2015-04-26T08:25:08Z</time>
      </trkpt>
      <trkpt lat="48.64497" lon="-2.47362">
        <ele>16</ele>
        <time>2015-04-26T08:25:22Z</time>
      </trkpt>
      <trkpt lat="48.64503" lon="-2.47376">
        <ele>14.08</ele>
        <time>2015-04-26T08:25:38Z</time>
      </trkpt>
      <trkpt lat="48.64505" lon="-2.47385">
        <ele>11.67</ele>
        <time>2015-04-26T08:25:57Z</time>
      </trkpt>
      <trkpt lat="48.64505" lon="-2.47385">
        <ele>11.19</ele>
        <time>2015-04-26T08:26:19Z</time>
      </trkpt>
      <trkpt lat="48.64507" lon="-2.47396">
        <ele>9.27</ele>
        <time>2015-04-26T08:26:47Z</time>
      </trkpt>
      <trkpt lat="48.64505" lon="-2.47407">
        <ele>10.71</ele>
        <time>2015-04-26T08:26:54Z</time>
      </trkpt>
      <trkpt lat="48.64503" lon="-2.4741">
        <ele>10.71</ele>
        <time>2015-04-26T08:26:57Z</time>
      </trkpt>
      <trkpt lat="48.64491" lon="-2.47438">
        <ele>11.67</ele>
        <time>2015-04-26T08:27:17Z</time>
      </trkpt>
      <trkpt lat="48.64483" lon="-2.47471">
        <ele>11.67</ele>
        <time>2015-04-26T08:27:37Z</time>
      </trkpt>
      <trkpt lat="48.6448" lon="-2.4748">
        <ele>11.19</ele>
        <time>2015-04-26T08:27:43Z</time>
      </trkpt>
      <trkpt lat="48.64477" lon="-2.47487">
        <ele>10.71</ele>
        <time>2015-04-26T08:27:48Z</time>
      </trkpt>
      <trkpt lat="48.64472" lon="-2.47491">
        <ele>11.19</ele>
        <time>2015-04-26T08:27:53Z</time>
      </trkpt>
      <trkpt lat="48.64466" lon="-2.47495">
        <ele>11.67</ele>
        <time>2015-04-26T08:28:00Z</time>
      </trkpt>
      <trkpt lat="48.6446" lon="-2.47507">
        <ele>12.15</ele>
        <time>2015-04-26T08:28:11Z</time>
      </trkpt>
      <trkpt lat="48.64458" lon="-2.47517">
        <ele>12.63</ele>
        <time>2015-04-26T08:28:26Z</time>
      </trkpt>
      <trkpt lat="48.64453" lon="-2.4753">
        <ele>10.71</ele>
        <time>2015-04-26T08:28:45Z</time>
      </trkpt>
      <trkpt lat="48.64449" lon="-2.47536">
        <ele>10.71</ele>
        <time>2015-04-26T08:28:54Z</time>
      </trkpt>
      <trkpt lat="48.64444" lon="-2.47537">
        <ele>10.71</ele>
        <time>2015-04-26T08:28:59Z</time>
      </trkpt>
      <trkpt lat="48.64437" lon="-2.4755">
        <ele>12.63</ele>
        <time>2015-04-26T08:29:18Z</time>
      </trkpt>
      <trkpt lat="48.64436" lon="-2.47554">
        <ele>14.08</ele>
        <time>2015-04-26T08:29:34Z</time>
      </trkpt>
      <trkpt lat="48.64435" lon="-2.47556">
        <ele>14.56</ele>
        <time>2015-04-26T08:29:38Z</time>
      </trkpt>
      <trkpt lat="48.64427" lon="-2.4757">
        <ele>16</ele>
        <time>2015-04-26T08:29:51Z</time>
      </trkpt>
      <trkpt lat="48.64421" lon="-2.47574">
        <ele>16</ele>
        <time>2015-04-26T08:29:57Z</time>
      </trkpt>
      <trkpt lat="48.64417" lon="-2.47572">
        <ele>16.96</ele>
        <time>2015-04-26T08:30:01Z</time>
      </trkpt>
      <trkpt lat="48.64415" lon="-2.47569">
        <ele>16.96</ele>
        <time>2015-04-26T08:30:04Z</time>
      </trkpt>
      <trkpt lat="48.64399" lon="-2.47549">
        <ele>18.4</ele>
        <time>2015-04-26T08:30:25Z</time>
      </trkpt>
      <trkpt lat="48.64389" lon="-2.4754">
        <ele>19.36</ele>
        <time>2015-04-26T08:30:37Z</time>
      </trkpt>
      <trkpt lat="48.64369" lon="-2.4753">
        <ele>22.25</ele>
        <time>2015-04-26T08:30:58Z</time>
      </trkpt>
      <trkpt lat="48.64355" lon="-2.4753">
        <ele>23.69</ele>
        <time>2015-04-26T08:31:14Z</time>
      </trkpt>
      <trkpt lat="48.64344" lon="-2.4753">
        <ele>25.13</ele>
        <time>2015-04-26T08:31:29Z</time>
      </trkpt>
      <trkpt lat="48.64328" lon="-2.47534">
        <ele>27.53</ele>
        <time>2015-04-26T08:31:48Z</time>
      </trkpt>
      <trkpt lat="48.6432" lon="-2.47537">
        <ele>27.53</ele>
        <time>2015-04-26T08:31:57Z</time>
      </trkpt>
      <trkpt lat="48.64306" lon="-2.4755">
        <ele>29.46</ele>
        <time>2015-04-26T08:32:16Z</time>
      </trkpt>
      <trkpt lat="48.64291" lon="-2.47566">
        <ele>31.86</ele>
        <time>2015-04-26T08:32:37Z</time>
      </trkpt>
      <trkpt lat="48.6429" lon="-2.47567">
        <ele>31.38</ele>
        <time>2015-04-26T08:32:38Z</time>
      </trkpt>
      <trkpt lat="48.64275" lon="-2.47587">
        <ele>35.23</ele>
        <time>2015-04-26T08:33:00Z</time>
      </trkpt>
      <trkpt lat="48.64274" lon="-2.47588">
        <ele>31.38</ele>
        <time>2015-04-26T08:33:02Z</time>
      </trkpt>
      <trkpt lat="48.64273" lon="-2.47588">
        <ele>34.74</ele>
        <time>2015-04-26T08:33:03Z</time>
      </trkpt>
      <trkpt lat="48.6427" lon="-2.476">
        <ele>36.19</ele>
        <time>2015-04-26T08:33:23Z</time>
      </trkpt>
      <trkpt lat="48.6427" lon="-2.476">
        <ele>30.42</ele>
        <time>2015-04-26T08:33:43Z</time>
      </trkpt>
      <trkpt lat="48.6427" lon="-2.476">
        <ele>34.74</ele>
        <time>2015-04-26T08:33:44Z</time>
      </trkpt>
      <trkpt lat="48.6427" lon="-2.476">
        <ele>35.71</ele>
        <time>2015-04-26T08:33:46Z</time>
      </trkpt>
      <trkpt lat="48.64271" lon="-2.47604">
        <ele>34.74</ele>
        <time>2015-04-26T08:33:52Z</time>
      </trkpt>
      <trkpt lat="48.64274" lon="-2.47615">
        <ele>37.63</ele>
        <time>2015-04-26T08:34:04Z</time>
      </trkpt>
      <trkpt lat="48.64278" lon="-2.47619">
        <ele>40.03</ele>
        <time>2015-04-26T08:34:24Z</time>
      </trkpt>
      <trkpt lat="48.64282" lon="-2.47626">
        <ele>42.44</ele>
        <time>2015-04-26T08:34:53Z</time>
      </trkpt>
      <trkpt lat="48.64284" lon="-2.47628">
        <ele>43.88</ele>
        <time>2015-04-26T08:35:19Z</time>
      </trkpt>
      <trkpt lat="48.64287" lon="-2.47638">
        <ele>46.76</ele>
        <time>2015-04-26T08:35:33Z</time>
      </trkpt>
      <trkpt lat="48.64295" lon="-2.47652">
        <ele>48.2</ele>
        <time>2015-04-26T08:35:52Z</time>
      </trkpt>
      <trkpt lat="48.64303" lon="-2.47646">
        <ele>50.13</ele>
        <time>2015-04-26T08:36:08Z</time>
      </trkpt>
      <trkpt lat="48.64307" lon="-2.47643">
        <ele>50.61</ele>
        <time>2015-04-26T08:36:14Z</time>
      </trkpt>
      <trkpt lat="48.64314" lon="-2.47629">
        <ele>52.53</ele>
        <time>2015-04-26T08:36:31Z</time>
      </trkpt>
      <trkpt lat="48.64317" lon="-2.47611">
        <ele>49.65</ele>
        <time>2015-04-26T08:36:51Z</time>
      </trkpt>
      <trkpt lat="48.6432" lon="-2.476">
        <ele>48.68</ele>
        <time>2015-04-26T08:37:09Z</time>
      </trkpt>
      <trkpt lat="48.64325" lon="-2.47596">
        <ele>48.68</ele>
        <time>2015-04-26T08:37:16Z</time>
      </trkpt>
      <trkpt lat="48.6433" lon="-2.47598">
        <ele>49.16</ele>
        <time>2015-04-26T08:37:22Z</time>
      </trkpt>
      <trkpt lat="48.64339" lon="-2.47605">
        <ele>49.65</ele>
        <time>2015-04-26T08:37:35Z</time>
      </trkpt>
      <trkpt lat="48.64347" lon="-2.47615">
        <ele>50.13</ele>
        <time>2015-04-26T08:37:47Z</time>
      </trkpt>
      <trkpt lat="48.64348" lon="-2.47632">
        <ele>51.09</ele>
        <time>2015-04-26T08:37:59Z</time>
      </trkpt>
      <trkpt lat="48.64351" lon="-2.4764">
        <ele>51.09</ele>
        <time>2015-04-26T08:38:17Z</time>
      </trkpt>
      <trkpt lat="48.64351" lon="-2.47639">
        <ele>50.61</ele>
        <time>2015-04-26T08:38:43Z</time>
      </trkpt>
      <trkpt lat="48.64351" lon="-2.4764">
        <ele>51.09</ele>
        <time>2015-04-26T08:42:01Z</time>
      </trkpt>
      <trkpt lat="48.64349" lon="-2.47638">
        <ele>52.05</ele>
        <time>2015-04-26T08:42:54Z</time>
      </trkpt>
      <trkpt lat="48.64349" lon="-2.47636">
        <ele>51.09</ele>
        <time>2015-04-26T08:43:22Z</time>
      </trkpt>
      <trkpt lat="48.64348" lon="-2.47642">
        <ele>51.09</ele>
        <time>2015-04-26T08:43:26Z</time>
      </trkpt>
      <trkpt lat="48.64345" lon="-2.47661">
        <ele>52.05</ele>
        <time>2015-04-26T08:43:40Z</time>
      </trkpt>
      <trkpt lat="48.64345" lon="-2.47684">
        <ele>53.01</ele>
        <time>2015-04-26T08:44:00Z</time>
      </trkpt>
      <trkpt lat="48.64346" lon="-2.47708">
        <ele>53.01</ele>
        <time>2015-04-26T08:44:17Z</time>
      </trkpt>
      <trkpt lat="48.64349" lon="-2.47733">
        <ele>54.45</ele>
        <time>2015-04-26T08:44:37Z</time>
      </trkpt>
      <trkpt lat="48.64353" lon="-2.47747">
        <ele>54.45</ele>
        <time>2015-04-26T08:44:52Z</time>
      </trkpt>
      <trkpt lat="48.6436" lon="-2.4776">
        <ele>53.49</ele>
        <time>2015-04-26T08:45:04Z</time>
      </trkpt>
      <trkpt lat="48.64368" lon="-2.4778">
        <ele>54.45</ele>
        <time>2015-04-26T08:45:24Z</time>
      </trkpt>
      <trkpt lat="48.64369" lon="-2.47785">
        <ele>54.93</ele>
        <time>2015-04-26T08:45:28Z</time>
      </trkpt>
      <trkpt lat="48.64371" lon="-2.4781">
        <ele>54.93</ele>
        <time>2015-04-26T08:45:47Z</time>
      </trkpt>
      <trkpt lat="48.64375" lon="-2.47831">
        <ele>53.01</ele>
        <time>2015-04-26T08:46:04Z</time>
      </trkpt>
      <trkpt lat="48.64375" lon="-2.4786">
        <ele>53.01</ele>
        <time>2015-04-26T08:46:24Z</time>
      </trkpt>
      <trkpt lat="48.64377" lon="-2.47887">
        <ele>53.97</ele>
        <time>2015-04-26T08:46:43Z</time>
      </trkpt>
      <trkpt lat="48.6438" lon="-2.47917">
        <ele>54.45</ele>
        <time>2015-04-26T08:47:04Z</time>
      </trkpt>
      <trkpt lat="48.64381" lon="-2.47924">
        <ele>55.41</ele>
        <time>2015-04-26T08:47:08Z</time>
      </trkpt>
      <trkpt lat="48.64381" lon="-2.47944">
        <ele>55.41</ele>
        <time>2015-04-26T08:47:25Z</time>
      </trkpt>
      <trkpt lat="48.6438" lon="-2.47954">
        <ele>54.45</ele>
        <time>2015-04-26T08:47:43Z</time>
      </trkpt>
      <trkpt lat="48.64378" lon="-2.47965">
        <ele>52.53</ele>
        <time>2015-04-26T08:48:02Z</time>
      </trkpt>
      <trkpt lat="48.64378" lon="-2.47966">
        <ele>52.05</ele>
        <time>2015-04-26T08:48:03Z</time>
      </trkpt>
      <trkpt lat="48.64371" lon="-2.4799">
        <ele>50.13</ele>
        <time>2015-04-26T08:48:22Z</time>
      </trkpt>
      <trkpt lat="48.64369" lon="-2.47999">
        <ele>49.65</ele>
        <time>2015-04-26T08:48:30Z</time>
      </trkpt>
      <trkpt lat="48.64363" lon="-2.48029">
        <ele>47.72</ele>
        <time>2015-04-26T08:48:48Z</time>
      </trkpt>
      <trkpt lat="48.64362" lon="-2.48035">
        <ele>48.2</ele>
        <time>2015-04-26T08:48:52Z</time>
      </trkpt>
      <trkpt lat="48.64361" lon="-2.48049">
        <ele>48.68</ele>
        <time>2015-04-26T08:49:00Z</time>
      </trkpt>
      <trkpt lat="48.64361" lon="-2.48063">
        <ele>47.72</ele>
        <time>2015-04-26T08:49:08Z</time>
      </trkpt>
      <trkpt lat="48.64361" lon="-2.48067">
        <ele>47.72</ele>
        <time>2015-04-26T08:49:10Z</time>
      </trkpt>
      <trkpt lat="48.64366" lon="-2.48097">
        <ele>46.76</ele>
        <time>2015-04-26T08:49:32Z</time>
      </trkpt>
      <trkpt lat="48.6437" lon="-2.48129">
        <ele>46.28</ele>
        <time>2015-04-26T08:49:53Z</time>
      </trkpt>
      <trkpt lat="48.64368" lon="-2.48153">
        <ele>44.84</ele>
        <time>2015-04-26T08:50:12Z</time>
      </trkpt>
      <trkpt lat="48.64366" lon="-2.48158">
        <ele>44.36</ele>
        <time>2015-04-26T08:50:23Z</time>
      </trkpt>
      <trkpt lat="48.64355" lon="-2.48167">
        <ele>42.44</ele>
        <time>2015-04-26T08:50:40Z</time>
      </trkpt>
      <trkpt lat="48.64349" lon="-2.48174">
        <ele>41.95</ele>
        <time>2015-04-26T08:50:58Z</time>
      </trkpt>
      <trkpt lat="48.64347" lon="-2.48188">
        <ele>38.59</ele>
        <time>2015-04-26T08:51:19Z</time>
      </trkpt>
      <trkpt lat="48.6435" lon="-2.48206">
        <ele>36.19</ele>
        <time>2015-04-26T08:51:37Z</time>
      </trkpt>
      <trkpt lat="48.64352" lon="-2.4821">
        <ele>35.23</ele>
        <time>2015-04-26T08:51:40Z</time>
      </trkpt>
      <trkpt lat="48.64356" lon="-2.48221">
        <ele>36.67</ele>
        <time>2015-04-26T08:52:00Z</time>
      </trkpt>
      <trkpt lat="48.64358" lon="-2.48227">
        <ele>39.55</ele>
        <time>2015-04-26T08:52:22Z</time>
      </trkpt>
      <trkpt lat="48.64359" lon="-2.48235">
        <ele>42.44</ele>
        <time>2015-04-26T08:52:39Z</time>
      </trkpt>
      <trkpt lat="48.64363" lon="-2.48242">
        <ele>44.36</ele>
        <time>2015-04-26T08:52:58Z</time>
      </trkpt>
      <trkpt lat="48.64362" lon="-2.48243">
        <ele>43.88</ele>
        <time>2015-04-26T08:53:24Z</time>
      </trkpt>
      <trkpt lat="48.64362" lon="-2.48243">
        <ele>44.84</ele>
        <time>2015-04-26T08:54:53Z</time>
      </trkpt>
      <trkpt lat="48.64365" lon="-2.48243">
        <ele>44.84</ele>
        <time>2015-04-26T08:55:24Z</time>
      </trkpt>
      <trkpt lat="48.64373" lon="-2.48242">
        <ele>45.32</ele>
        <time>2015-04-26T08:55:31Z</time>
      </trkpt>
      <trkpt lat="48.64386" lon="-2.48257">
        <ele>47.24</ele>
        <time>2015-04-26T08:55:45Z</time>
      </trkpt>
      <trkpt lat="48.64411" lon="-2.48256">
        <ele>47.72</ele>
        <time>2015-04-26T08:56:06Z</time>
      </trkpt>
      <trkpt lat="48.64412" lon="-2.48256">
        <ele>47.72</ele>
        <time>2015-04-26T08:56:07Z</time>
      </trkpt>
      <trkpt lat="48.64414" lon="-2.48258">
        <ele>47.24</ele>
        <time>2015-04-26T08:56:09Z</time>
      </trkpt>
      <trkpt lat="48.64422" lon="-2.48294">
        <ele>46.76</ele>
        <time>2015-04-26T08:56:31Z</time>
      </trkpt>
      <trkpt lat="48.64435" lon="-2.4832">
        <ele>47.72</ele>
        <time>2015-04-26T08:56:48Z</time>
      </trkpt>
      <trkpt lat="48.64438" lon="-2.48332">
        <ele>48.68</ele>
        <time>2015-04-26T08:56:56Z</time>
      </trkpt>
      <trkpt lat="48.64447" lon="-2.4836">
        <ele>50.61</ele>
        <time>2015-04-26T08:57:18Z</time>
      </trkpt>
      <trkpt lat="48.64448" lon="-2.48363">
        <ele>51.57</ele>
        <time>2015-04-26T08:57:20Z</time>
      </trkpt>
      <trkpt lat="48.64451" lon="-2.48373">
        <ele>52.53</ele>
        <time>2015-04-26T08:57:29Z</time>
      </trkpt>
      <trkpt lat="48.64455" lon="-2.48379">
        <ele>52.53</ele>
        <time>2015-04-26T08:57:35Z</time>
      </trkpt>
      <trkpt lat="48.64456" lon="-2.48388">
        <ele>53.49</ele>
        <time>2015-04-26T08:57:41Z</time>
      </trkpt>
      <trkpt lat="48.64459" lon="-2.48415">
        <ele>52.05</ele>
        <time>2015-04-26T08:57:58Z</time>
      </trkpt>
      <trkpt lat="48.64461" lon="-2.48442">
        <ele>51.57</ele>
        <time>2015-04-26T08:58:16Z</time>
      </trkpt>
      <trkpt lat="48.64463" lon="-2.48453">
        <ele>50.13</ele>
        <time>2015-04-26T08:58:25Z</time>
      </trkpt>
      <trkpt lat="48.64464" lon="-2.48458">
        <ele>50.13</ele>
        <time>2015-04-26T08:58:29Z</time>
      </trkpt>
      <trkpt lat="48.64468" lon="-2.48466">
        <ele>49.65</ele>
        <time>2015-04-26T08:58:35Z</time>
      </trkpt>
      <trkpt lat="48.64474" lon="-2.48479">
        <ele>49.65</ele>
        <time>2015-04-26T08:58:45Z</time>
      </trkpt>
      <trkpt lat="48.64476" lon="-2.48481">
        <ele>49.65</ele>
        <time>2015-04-26T08:58:47Z</time>
      </trkpt>
      <trkpt lat="48.6448" lon="-2.48489">
        <ele>49.16</ele>
        <time>2015-04-26T08:58:54Z</time>
      </trkpt>
      <trkpt lat="48.64486" lon="-2.48509">
        <ele>49.65</ele>
        <time>2015-04-26T08:59:12Z</time>
      </trkpt>
      <trkpt lat="48.64486" lon="-2.4851">
        <ele>49.65</ele>
        <time>2015-04-26T08:59:13Z</time>
      </trkpt>
      <trkpt lat="48.64487" lon="-2.48516">
        <ele>49.65</ele>
        <time>2015-04-26T08:59:17Z</time>
      </trkpt>
      <trkpt lat="48.64487" lon="-2.48521">
        <ele>49.16</ele>
        <time>2015-04-26T08:59:21Z</time>
      </trkpt>
      <trkpt lat="48.64486" lon="-2.48542">
        <ele>49.16</ele>
        <time>2015-04-26T08:59:38Z</time>
      </trkpt>
      <trkpt lat="48.64485" lon="-2.48553">
        <ele>49.16</ele>
        <time>2015-04-26T08:59:55Z</time>
      </trkpt>
      <trkpt lat="48.64485" lon="-2.48555">
        <ele>49.65</ele>
        <time>2015-04-26T09:00:14Z</time>
      </trkpt>
      <trkpt lat="48.64485" lon="-2.4856">
        <ele>50.13</ele>
        <time>2015-04-26T09:00:41Z</time>
      </trkpt>
      <trkpt lat="48.64484" lon="-2.48581">
        <ele>51.09</ele>
        <time>2015-04-26T09:01:00Z</time>
      </trkpt>
      <trkpt lat="48.64484" lon="-2.48582">
        <ele>51.09</ele>
        <time>2015-04-26T09:01:56Z</time>
      </trkpt>
      <trkpt lat="48.64482" lon="-2.48604">
        <ele>52.05</ele>
        <time>2015-04-26T09:02:13Z</time>
      </trkpt>
      <trkpt lat="48.64482" lon="-2.48604">
        <ele>52.53</ele>
        <time>2015-04-26T09:02:33Z</time>
      </trkpt>
      <trkpt lat="48.64482" lon="-2.48608">
        <ele>53.01</ele>
        <time>2015-04-26T09:03:19Z</time>
      </trkpt>
      <trkpt lat="48.64482" lon="-2.48608">
        <ele>53.49</ele>
        <time>2015-04-26T09:03:59Z</time>
      </trkpt>
      <trkpt lat="48.64481" lon="-2.48611">
        <ele>54.45</ele>
        <time>2015-04-26T09:04:38Z</time>
      </trkpt>
      <trkpt lat="48.64481" lon="-2.48612">
        <ele>54.45</ele>
        <time>2015-04-26T09:05:10Z</time>
      </trkpt>
      <trkpt lat="48.64477" lon="-2.48615">
        <ele>53.49</ele>
        <time>2015-04-26T09:05:15Z</time>
      </trkpt>
      <trkpt lat="48.64474" lon="-2.48614">
        <ele>53.01</ele>
        <time>2015-04-26T09:05:19Z</time>
      </trkpt>
      <trkpt lat="48.64459" lon="-2.48626">
        <ele>51.57</ele>
        <time>2015-04-26T09:05:39Z</time>
      </trkpt>
      <trkpt lat="48.64453" lon="-2.48634">
        <ele>50.61</ele>
        <time>2015-04-26T09:05:48Z</time>
      </trkpt>
      <trkpt lat="48.64443" lon="-2.48646">
        <ele>51.09</ele>
        <time>2015-04-26T09:06:04Z</time>
      </trkpt>
      <trkpt lat="48.64437" lon="-2.48647">
        <ele>50.13</ele>
        <time>2015-04-26T09:06:11Z</time>
      </trkpt>
      <trkpt lat="48.6443" lon="-2.48639">
        <ele>50.61</ele>
        <time>2015-04-26T09:06:18Z</time>
      </trkpt>
      <trkpt lat="48.64424" lon="-2.48633">
        <ele>50.13</ele>
        <time>2015-04-26T09:06:25Z</time>
      </trkpt>
      <trkpt lat="48.64421" lon="-2.48625">
        <ele>49.16</ele>
        <time>2015-04-26T09:06:31Z</time>
      </trkpt>
      <trkpt lat="48.64416" lon="-2.48618">
        <ele>48.68</ele>
        <time>2015-04-26T09:06:38Z</time>
      </trkpt>
      <trkpt lat="48.6441" lon="-2.48613">
        <ele>46.76</ele>
        <time>2015-04-26T09:06:49Z</time>
      </trkpt>
      <trkpt lat="48.64398" lon="-2.48621">
        <ele>44.36</ele>
        <time>2015-04-26T09:07:07Z</time>
      </trkpt>
      <trkpt lat="48.64394" lon="-2.48622">
        <ele>42.92</ele>
        <time>2015-04-26T09:07:18Z</time>
      </trkpt>
      <trkpt lat="48.64392" lon="-2.48625">
        <ele>42.44</ele>
        <time>2015-04-26T09:07:21Z</time>
      </trkpt>
      <trkpt lat="48.64378" lon="-2.48624">
        <ele>42.92</ele>
        <time>2015-04-26T09:07:33Z</time>
      </trkpt>
      <trkpt lat="48.64374" lon="-2.4862">
        <ele>42.92</ele>
        <time>2015-04-26T09:07:38Z</time>
      </trkpt>
      <trkpt lat="48.64365" lon="-2.48608">
        <ele>44.36</ele>
        <time>2015-04-26T09:07:52Z</time>
      </trkpt>
      <trkpt lat="48.64348" lon="-2.486">
        <ele>46.28</ele>
        <time>2015-04-26T09:08:10Z</time>
      </trkpt>
      <trkpt lat="48.64334" lon="-2.48602">
        <ele>47.24</ele>
        <time>2015-04-26T09:08:28Z</time>
      </trkpt>
      <trkpt lat="48.64319" lon="-2.48604">
        <ele>49.16</ele>
        <time>2015-04-26T09:08:48Z</time>
      </trkpt>
      <trkpt lat="48.64304" lon="-2.48596">
        <ele>48.68</ele>
        <time>2015-04-26T09:09:06Z</time>
      </trkpt>
      <trkpt lat="48.64302" lon="-2.48595">
        <ele>48.68</ele>
        <time>2015-04-26T09:09:09Z</time>
      </trkpt>
      <trkpt lat="48.64294" lon="-2.48596">
        <ele>48.2</ele>
        <time>2015-04-26T09:09:28Z</time>
      </trkpt>
      <trkpt lat="48.64293" lon="-2.48596">
        <ele>48.2</ele>
        <time>2015-04-26T09:10:13Z</time>
      </trkpt>
      <trkpt lat="48.64288" lon="-2.48592">
        <ele>47.24</ele>
        <time>2015-04-26T09:10:19Z</time>
      </trkpt>
      <trkpt lat="48.64284" lon="-2.48589">
        <ele>46.76</ele>
        <time>2015-04-26T09:10:23Z</time>
      </trkpt>
      <trkpt lat="48.64277" lon="-2.48586">
        <ele>46.28</ele>
        <time>2015-04-26T09:10:31Z</time>
      </trkpt>
      <trkpt lat="48.64257" lon="-2.48557">
        <ele>46.28</ele>
        <time>2015-04-26T09:10:54Z</time>
      </trkpt>
      <trkpt lat="48.64253" lon="-2.48556">
        <ele>46.28</ele>
        <time>2015-04-26T09:10:58Z</time>
      </trkpt>
      <trkpt lat="48.64248" lon="-2.48549">
        <ele>47.72</ele>
        <time>2015-04-26T09:11:06Z</time>
      </trkpt>
      <trkpt lat="48.64238" lon="-2.48528">
        <ele>49.16</ele>
        <time>2015-04-26T09:11:23Z</time>
      </trkpt>
      <trkpt lat="48.64236" lon="-2.48524">
        <ele>49.16</ele>
        <time>2015-04-26T09:11:26Z</time>
      </trkpt>
      <trkpt lat="48.64234" lon="-2.48521">
        <ele>50.13</ele>
        <time>2015-04-26T09:11:29Z</time>
      </trkpt>
      <trkpt lat="48.64219" lon="-2.48491">
        <ele>50.13</ele>
        <time>2015-04-26T09:11:50Z</time>
      </trkpt>
      <trkpt lat="48.64217" lon="-2.48481">
        <ele>49.65</ele>
        <time>2015-04-26T09:11:56Z</time>
      </trkpt>
      <trkpt lat="48.64212" lon="-2.48461">
        <ele>49.65</ele>
        <time>2015-04-26T09:12:18Z</time>
      </trkpt>
      <trkpt lat="48.64211" lon="-2.48459">
        <ele>59.74</ele>
        <time>2015-04-26T09:12:22Z</time>
      </trkpt>
      <trkpt lat="48.64211" lon="-2.48459">
        <ele>49.16</ele>
        <time>2015-04-26T09:12:23Z</time>
      </trkpt>
      <trkpt lat="48.64211" lon="-2.48459">
        <ele>54.45</ele>
        <time>2015-04-26T09:12:25Z</time>
      </trkpt>
      <trkpt lat="48.64211" lon="-2.48459">
        <ele>51.57</ele>
        <time>2015-04-26T09:12:26Z</time>
      </trkpt>
      <trkpt lat="48.64211" lon="-2.48459">
        <ele>50.13</ele>
        <time>2015-04-26T09:12:36Z</time>
      </trkpt>
      <trkpt lat="48.64211" lon="-2.48459">
        <ele>45.8</ele>
        <time>2015-04-26T09:12:45Z</time>
      </trkpt>
      <trkpt lat="48.64211" lon="-2.48459">
        <ele>50.13</ele>
        <time>2015-04-26T09:12:46Z</time>
      </trkpt>
      <trkpt lat="48.64211" lon="-2.48459">
        <ele>51.57</ele>
        <time>2015-04-26T09:12:54Z</time>
      </trkpt>
      <trkpt lat="48.64211" lon="-2.48458">
        <ele>47.72</ele>
        <time>2015-04-26T09:13:03Z</time>
      </trkpt>
      <trkpt lat="48.64211" lon="-2.48458">
        <ele>54.45</ele>
        <time>2015-04-26T09:13:07Z</time>
      </trkpt>
      <trkpt lat="48.64211" lon="-2.48458">
        <ele>50.13</ele>
        <time>2015-04-26T09:13:08Z</time>
      </trkpt>
      <trkpt lat="48.64211" lon="-2.48458">
        <ele>49.16</ele>
        <time>2015-04-26T09:13:10Z</time>
      </trkpt>
      <trkpt lat="48.64209" lon="-2.48453">
        <ele>48.68</ele>
        <time>2015-04-26T09:13:15Z</time>
      </trkpt>
      <trkpt lat="48.64208" lon="-2.48444">
        <ele>49.16</ele>
        <time>2015-04-26T09:13:21Z</time>
      </trkpt>
      <trkpt lat="48.64208" lon="-2.48439">
        <ele>49.65</ele>
        <time>2015-04-26T09:13:34Z</time>
      </trkpt>
      <trkpt lat="48.64208" lon="-2.48436">
        <ele>49.65</ele>
        <time>2015-04-26T09:13:36Z</time>
      </trkpt>
      <trkpt lat="48.64209" lon="-2.48421">
        <ele>49.65</ele>
        <time>2015-04-26T09:13:47Z</time>
      </trkpt>
      <trkpt lat="48.6421" lon="-2.48416">
        <ele>49.65</ele>
        <time>2015-04-26T09:13:50Z</time>
      </trkpt>
      <trkpt lat="48.64212" lon="-2.48414">
        <ele>49.65</ele>
        <time>2015-04-26T09:13:52Z</time>
      </trkpt>
      <trkpt lat="48.64213" lon="-2.48408">
        <ele>50.61</ele>
        <time>2015-04-26T09:14:10Z</time>
      </trkpt>
      <trkpt lat="48.6422" lon="-2.48382">
        <ele>52.05</ele>
        <time>2015-04-26T09:14:28Z</time>
      </trkpt>
      <trkpt lat="48.64219" lon="-2.48375">
        <ele>52.53</ele>
        <time>2015-04-26T09:14:34Z</time>
      </trkpt>
      <trkpt lat="48.64205" lon="-2.4836">
        <ele>53.49</ele>
        <time>2015-04-26T09:14:55Z</time>
      </trkpt>
      <trkpt lat="48.64204" lon="-2.48358">
        <ele>53.97</ele>
        <time>2015-04-26T09:15:22Z</time>
      </trkpt>
      <trkpt lat="48.64193" lon="-2.48346">
        <ele>54.45</ele>
        <time>2015-04-26T09:15:48Z</time>
      </trkpt>
      <trkpt lat="48.64182" lon="-2.48323">
        <ele>55.41</ele>
        <time>2015-04-26T09:16:08Z</time>
      </trkpt>
      <trkpt lat="48.64168" lon="-2.4831">
        <ele>55.41</ele>
        <time>2015-04-26T09:16:25Z</time>
      </trkpt>
      <trkpt lat="48.64152" lon="-2.4829">
        <ele>54.93</ele>
        <time>2015-04-26T09:16:44Z</time>
      </trkpt>
      <trkpt lat="48.6413" lon="-2.48269">
        <ele>55.41</ele>
        <time>2015-04-26T09:17:06Z</time>
      </trkpt>
      <trkpt lat="48.64123" lon="-2.48264">
        <ele>55.41</ele>
        <time>2015-04-26T09:17:12Z</time>
      </trkpt>
      <trkpt lat="48.64103" lon="-2.48248">
        <ele>58.3</ele>
        <time>2015-04-26T09:17:34Z</time>
      </trkpt>
      <trkpt lat="48.64085" lon="-2.48236">
        <ele>60.22</ele>
        <time>2015-04-26T09:17:54Z</time>
      </trkpt>
      <trkpt lat="48.64063" lon="-2.48218">
        <ele>60.22</ele>
        <time>2015-04-26T09:18:16Z</time>
      </trkpt>
      <trkpt lat="48.64047" lon="-2.48206">
        <ele>60.22</ele>
        <time>2015-04-26T09:18:32Z</time>
      </trkpt>
      <trkpt lat="48.6404" lon="-2.482">
        <ele>59.74</ele>
        <time>2015-04-26T09:18:39Z</time>
      </trkpt>
      <trkpt lat="48.64035" lon="-2.48197">
        <ele>60.22</ele>
        <time>2015-04-26T09:18:43Z</time>
      </trkpt>
      <trkpt lat="48.64031" lon="-2.48195">
        <ele>60.22</ele>
        <time>2015-04-26T09:18:59Z</time>
      </trkpt>
      <trkpt lat="48.6402" lon="-2.48189">
        <ele>60.7</ele>
        <time>2015-04-26T09:19:36Z</time>
      </trkpt>
      <trkpt lat="48.64013" lon="-2.48185">
        <ele>61.18</ele>
        <time>2015-04-26T09:19:55Z</time>
      </trkpt>
      <trkpt lat="48.64012" lon="-2.48185">
        <ele>61.66</ele>
        <time>2015-04-26T09:20:11Z</time>
      </trkpt>
      <trkpt lat="48.63994" lon="-2.48168">
        <ele>62.62</ele>
        <time>2015-04-26T09:20:29Z</time>
      </trkpt>
      <trkpt lat="48.63992" lon="-2.48166">
        <ele>63.1</ele>
        <time>2015-04-26T09:20:31Z</time>
      </trkpt>
      <trkpt lat="48.63988" lon="-2.48162">
        <ele>63.58</ele>
        <time>2015-04-26T09:20:35Z</time>
      </trkpt>
      <trkpt lat="48.63977" lon="-2.48148">
        <ele>65.03</ele>
        <time>2015-04-26T09:20:48Z</time>
      </trkpt>
      <trkpt lat="48.63972" lon="-2.48139">
        <ele>65.51</ele>
        <time>2015-04-26T09:21:05Z</time>
      </trkpt>
      <trkpt lat="48.63964" lon="-2.48132">
        <ele>66.47</ele>
        <time>2015-04-26T09:21:21Z</time>
      </trkpt>
      <trkpt lat="48.63961" lon="-2.48133">
        <ele>66.47</ele>
        <time>2015-04-26T09:21:24Z</time>
      </trkpt>
      <trkpt lat="48.63959" lon="-2.48137">
        <ele>65.99</ele>
        <time>2015-04-26T09:21:29Z</time>
      </trkpt>
      <trkpt lat="48.63956" lon="-2.4814">
        <ele>65.99</ele>
        <time>2015-04-26T09:22:02Z</time>
      </trkpt>
      <trkpt lat="48.63956" lon="-2.4814">
        <ele>65.51</ele>
        <time>2015-04-26T09:22:15Z</time>
      </trkpt>
      <trkpt lat="48.63961" lon="-2.48133">
        <ele>65.99</ele>
        <time>2015-04-26T09:22:36Z</time>
      </trkpt>
      <trkpt lat="48.63961" lon="-2.48133">
        <ele>65.51</ele>
        <time>2015-04-26T09:22:59Z</time>
      </trkpt>
      <trkpt lat="48.63962" lon="-2.48133">
        <ele>62.14</ele>
        <time>2015-04-26T09:23:32Z</time>
      </trkpt>
      <trkpt lat="48.63962" lon="-2.48133">
        <ele>65.51</ele>
        <time>2015-04-26T09:23:33Z</time>
      </trkpt>
      <trkpt lat="48.63962" lon="-2.48133">
        <ele>65.51</ele>
        <time>2015-04-26T09:23:34Z</time>
      </trkpt>
      <trkpt lat="48.63962" lon="-2.48133">
        <ele>65.51</ele>
        <time>2015-04-26T09:24:12Z</time>
      </trkpt>
      <trkpt lat="48.63962" lon="-2.48134">
        <ele>65.51</ele>
        <time>2015-04-26T09:24:52Z</time>
      </trkpt>
      <trkpt lat="48.63963" lon="-2.48135">
        <ele>65.99</ele>
        <time>2015-04-26T09:26:06Z</time>
      </trkpt>
      <trkpt lat="48.63963" lon="-2.48135">
        <ele>65.51</ele>
        <time>2015-04-26T09:26:55Z</time>
      </trkpt>
      <trkpt lat="48.63964" lon="-2.48135">
        <ele>65.03</ele>
        <time>2015-04-26T09:27:34Z</time>
      </trkpt>
      <trkpt lat="48.63964" lon="-2.48135">
        <ele>65.03</ele>
        <time>2015-04-26T09:28:21Z</time>
      </trkpt>
      <trkpt lat="48.63965" lon="-2.48134">
        <ele>65.51</ele>
        <time>2015-04-26T09:29:17Z</time>
      </trkpt>
      <trkpt lat="48.63965" lon="-2.48134">
        <ele>65.51</ele>
        <time>2015-04-26T09:29:51Z</time>
      </trkpt>
      <trkpt lat="48.63964" lon="-2.48133">
        <ele>65.99</ele>
        <time>2015-04-26T09:30:16Z</time>
      </trkpt>
      <trkpt lat="48.63964" lon="-2.48133">
        <ele>65.99</ele>
        <time>2015-04-26T09:30:20Z</time>
      </trkpt>
      <trkpt lat="48.63963" lon="-2.48134">
        <ele>65.99</ele>
        <time>2015-04-26T09:30:30Z</time>
      </trkpt>
      <trkpt lat="48.6396" lon="-2.48136">
        <ele>65.51</ele>
        <time>2015-04-26T09:30:34Z</time>
      </trkpt>
      <trkpt lat="48.63958" lon="-2.48135">
        <ele>65.51</ele>
        <time>2015-04-26T09:30:36Z</time>
      </trkpt>
      <trkpt lat="48.63951" lon="-2.48138">
        <ele>64.55</ele>
        <time>2015-04-26T09:30:43Z</time>
      </trkpt>
      <trkpt lat="48.63934" lon="-2.48133">
        <ele>61.66</ele>
        <time>2015-04-26T09:31:01Z</time>
      </trkpt>
      <trkpt lat="48.63922" lon="-2.48134">
        <ele>58.3</ele>
        <time>2015-04-26T09:31:16Z</time>
      </trkpt>
      <trkpt lat="48.63913" lon="-2.48137">
        <ele>56.37</ele>
        <time>2015-04-26T09:31:25Z</time>
      </trkpt>
      <trkpt lat="48.63908" lon="-2.48146">
        <ele>54.93</ele>
        <time>2015-04-26T09:31:32Z</time>
      </trkpt>
      <trkpt lat="48.63903" lon="-2.4815">
        <ele>54.45</ele>
        <time>2015-04-26T09:31:48Z</time>
      </trkpt>
      <trkpt lat="48.63899" lon="-2.48147">
        <ele>53.49</ele>
        <time>2015-04-26T09:31:52Z</time>
      </trkpt>
      <trkpt lat="48.63895" lon="-2.48147">
        <ele>53.49</ele>
        <time>2015-04-26T09:31:55Z</time>
      </trkpt>
      <trkpt lat="48.6388" lon="-2.48157">
        <ele>54.93</ele>
        <time>2015-04-26T09:32:11Z</time>
      </trkpt>
      <trkpt lat="48.63868" lon="-2.48169">
        <ele>54.93</ele>
        <time>2015-04-26T09:32:23Z</time>
      </trkpt>
      <trkpt lat="48.63856" lon="-2.48176">
        <ele>52.53</ele>
        <time>2015-04-26T09:32:37Z</time>
      </trkpt>
      <trkpt lat="48.63853" lon="-2.4818">
        <ele>54.93</ele>
        <time>2015-04-26T09:32:41Z</time>
      </trkpt>
      <trkpt lat="48.63852" lon="-2.48196">
        <ele>53.01</ele>
        <time>2015-04-26T09:32:53Z</time>
      </trkpt>
      <trkpt lat="48.63852" lon="-2.48198">
        <ele>52.53</ele>
        <time>2015-04-26T09:32:54Z</time>
      </trkpt>
      <trkpt lat="48.63854" lon="-2.48202">
        <ele>52.05</ele>
        <time>2015-04-26T09:32:57Z</time>
      </trkpt>
      <trkpt lat="48.63855" lon="-2.48207">
        <ele>51.57</ele>
        <time>2015-04-26T09:33:03Z</time>
      </trkpt>
      <trkpt lat="48.63859" lon="-2.48219">
        <ele>51.09</ele>
        <time>2015-04-26T09:33:11Z</time>
      </trkpt>
      <trkpt lat="48.63863" lon="-2.4823">
        <ele>50.61</ele>
        <time>2015-04-26T09:33:17Z</time>
      </trkpt>
      <trkpt lat="48.63867" lon="-2.48254">
        <ele>50.13</ele>
        <time>2015-04-26T09:33:32Z</time>
      </trkpt>
      <trkpt lat="48.63859" lon="-2.48265">
        <ele>47.24</ele>
        <time>2015-04-26T09:33:49Z</time>
      </trkpt>
      <trkpt lat="48.63856" lon="-2.4827">
        <ele>45.8</ele>
        <time>2015-04-26T09:34:15Z</time>
      </trkpt>
      <trkpt lat="48.63852" lon="-2.4827">
        <ele>43.88</ele>
        <time>2015-04-26T09:34:31Z</time>
      </trkpt>
      <trkpt lat="48.63849" lon="-2.48277">
        <ele>40.99</ele>
        <time>2015-04-26T09:34:49Z</time>
      </trkpt>
      <trkpt lat="48.63847" lon="-2.48274">
        <ele>40.51</ele>
        <time>2015-04-26T09:34:53Z</time>
      </trkpt>
      <trkpt lat="48.63841" lon="-2.48262">
        <ele>40.51</ele>
        <time>2015-04-26T09:35:01Z</time>
      </trkpt>
      <trkpt lat="48.63837" lon="-2.48242">
        <ele>40.51</ele>
        <time>2015-04-26T09:35:18Z</time>
      </trkpt>
      <trkpt lat="48.63837" lon="-2.48237">
        <ele>40.99</ele>
        <time>2015-04-26T09:35:21Z</time>
      </trkpt>
      <trkpt lat="48.63835" lon="-2.48232">
        <ele>40.99</ele>
        <time>2015-04-26T09:35:24Z</time>
      </trkpt>
      <trkpt lat="48.63833" lon="-2.48226">
        <ele>41.47</ele>
        <time>2015-04-26T09:35:28Z</time>
      </trkpt>
      <trkpt lat="48.63832" lon="-2.48211">
        <ele>41.47</ele>
        <time>2015-04-26T09:35:36Z</time>
      </trkpt>
      <trkpt lat="48.63828" lon="-2.48199">
        <ele>42.44</ele>
        <time>2015-04-26T09:35:44Z</time>
      </trkpt>
      <trkpt lat="48.63828" lon="-2.4819">
        <ele>42.92</ele>
        <time>2015-04-26T09:35:49Z</time>
      </trkpt>
      <trkpt lat="48.63826" lon="-2.48184">
        <ele>43.4</ele>
        <time>2015-04-26T09:35:53Z</time>
      </trkpt>
      <trkpt lat="48.63826" lon="-2.48181">
        <ele>43.4</ele>
        <time>2015-04-26T09:35:55Z</time>
      </trkpt>
      <trkpt lat="48.63824" lon="-2.48177">
        <ele>43.88</ele>
        <time>2015-04-26T09:35:58Z</time>
      </trkpt>
      <trkpt lat="48.63821" lon="-2.48152">
        <ele>45.32</ele>
        <time>2015-04-26T09:36:15Z</time>
      </trkpt>
      <trkpt lat="48.63821" lon="-2.4815">
        <ele>44.84</ele>
        <time>2015-04-26T09:36:16Z</time>
      </trkpt>
      <trkpt lat="48.6382" lon="-2.48137">
        <ele>44.36</ele>
        <time>2015-04-26T09:36:34Z</time>
      </trkpt>
      <trkpt lat="48.63815" lon="-2.48127">
        <ele>43.4</ele>
        <time>2015-04-26T09:36:50Z</time>
      </trkpt>
      <trkpt lat="48.63811" lon="-2.4811">
        <ele>43.88</ele>
        <time>2015-04-26T09:37:17Z</time>
      </trkpt>
      <trkpt lat="48.63806" lon="-2.4809">
        <ele>45.32</ele>
        <time>2015-04-26T09:37:35Z</time>
      </trkpt>
      <trkpt lat="48.63806" lon="-2.48075">
        <ele>48.2</ele>
        <time>2015-04-26T09:37:51Z</time>
      </trkpt>
      <trkpt lat="48.638" lon="-2.48061">
        <ele>49.65</ele>
        <time>2015-04-26T09:38:07Z</time>
      </trkpt>
      <trkpt lat="48.63799" lon="-2.48057">
        <ele>50.61</ele>
        <time>2015-04-26T09:38:12Z</time>
      </trkpt>
      <trkpt lat="48.63795" lon="-2.48048">
        <ele>51.09</ele>
        <time>2015-04-26T09:38:34Z</time>
      </trkpt>
      <trkpt lat="48.63793" lon="-2.48041">
        <ele>51.09</ele>
        <time>2015-04-26T09:38:42Z</time>
      </trkpt>
      <trkpt lat="48.63786" lon="-2.48031">
        <ele>51.57</ele>
        <time>2015-04-26T09:38:52Z</time>
      </trkpt>
      <trkpt lat="48.63783" lon="-2.48027">
        <ele>52.05</ele>
        <time>2015-04-26T09:38:57Z</time>
      </trkpt>
      <trkpt lat="48.63781" lon="-2.48026">
        <ele>52.53</ele>
        <time>2015-04-26T09:38:59Z</time>
      </trkpt>
      <trkpt lat="48.63774" lon="-2.48007">
        <ele>53.97</ele>
        <time>2015-04-26T09:39:17Z</time>
      </trkpt>
      <trkpt lat="48.63774" lon="-2.48004">
        <ele>53.97</ele>
        <time>2015-04-26T09:39:19Z</time>
      </trkpt>
      <trkpt lat="48.63775" lon="-2.47999">
        <ele>53.97</ele>
        <time>2015-04-26T09:39:23Z</time>
      </trkpt>
      <trkpt lat="48.63777" lon="-2.47991">
        <ele>54.45</ele>
        <time>2015-04-26T09:39:29Z</time>
      </trkpt>
      <trkpt lat="48.63779" lon="-2.47984">
        <ele>54.45</ele>
        <time>2015-04-26T09:39:33Z</time>
      </trkpt>
      <trkpt lat="48.6378" lon="-2.47981">
        <ele>54.45</ele>
        <time>2015-04-26T09:39:36Z</time>
      </trkpt>
      <trkpt lat="48.63773" lon="-2.47966">
        <ele>55.89</ele>
        <time>2015-04-26T09:39:56Z</time>
      </trkpt>
      <trkpt lat="48.63772" lon="-2.47962">
        <ele>55.41</ele>
        <time>2015-04-26T09:39:59Z</time>
      </trkpt>
      <trkpt lat="48.63767" lon="-2.47936">
        <ele>57.34</ele>
        <time>2015-04-26T09:40:18Z</time>
      </trkpt>
      <trkpt lat="48.63768" lon="-2.47907">
        <ele>56.37</ele>
        <time>2015-04-26T09:40:36Z</time>
      </trkpt>
      <trkpt lat="48.63764" lon="-2.47877">
        <ele>55.89</ele>
        <time>2015-04-26T09:40:55Z</time>
      </trkpt>
      <trkpt lat="48.63755" lon="-2.47851">
        <ele>55.41</ele>
        <time>2015-04-26T09:41:13Z</time>
      </trkpt>
      <trkpt lat="48.63758" lon="-2.47821">
        <ele>54.45</ele>
        <time>2015-04-26T09:41:34Z</time>
      </trkpt>
      <trkpt lat="48.63759" lon="-2.47817">
        <ele>54.93</ele>
        <time>2015-04-26T09:41:38Z</time>
      </trkpt>
      <trkpt lat="48.63763" lon="-2.47801">
        <ele>53.49</ele>
        <time>2015-04-26T09:41:58Z</time>
      </trkpt>
      <trkpt lat="48.63764" lon="-2.47797">
        <ele>53.49</ele>
        <time>2015-04-26T09:42:01Z</time>
      </trkpt>
      <trkpt lat="48.63763" lon="-2.47787">
        <ele>51.09</ele>
        <time>2015-04-26T09:42:18Z</time>
      </trkpt>
      <trkpt lat="48.63761" lon="-2.47774">
        <ele>49.16</ele>
        <time>2015-04-26T09:42:34Z</time>
      </trkpt>
      <trkpt lat="48.63761" lon="-2.47762">
        <ele>48.2</ele>
        <time>2015-04-26T09:42:41Z</time>
      </trkpt>
      <trkpt lat="48.6375" lon="-2.47732">
        <ele>47.24</ele>
        <time>2015-04-26T09:43:00Z</time>
      </trkpt>
      <trkpt lat="48.63743" lon="-2.47716">
        <ele>46.76</ele>
        <time>2015-04-26T09:43:16Z</time>
      </trkpt>
      <trkpt lat="48.63738" lon="-2.47697">
        <ele>46.76</ele>
        <time>2015-04-26T09:43:27Z</time>
      </trkpt>
      <trkpt lat="48.63744" lon="-2.47674">
        <ele>45.8</ele>
        <time>2015-04-26T09:43:48Z</time>
      </trkpt>
      <trkpt lat="48.63747" lon="-2.47658">
        <ele>46.28</ele>
        <time>2015-04-26T09:44:10Z</time>
      </trkpt>
      <trkpt lat="48.6375" lon="-2.47657">
        <ele>47.24</ele>
        <time>2015-04-26T09:44:39Z</time>
      </trkpt>
      <trkpt lat="48.63749" lon="-2.47653">
        <ele>47.24</ele>
        <time>2015-04-26T09:46:12Z</time>
      </trkpt>
      <trkpt lat="48.63751" lon="-2.47651">
        <ele>47.24</ele>
        <time>2015-04-26T09:47:10Z</time>
      </trkpt>
      <trkpt lat="48.63751" lon="-2.47651">
        <ele>47.24</ele>
        <time>2015-04-26T09:47:41Z</time>
      </trkpt>
      <trkpt lat="48.63743" lon="-2.47642">
        <ele>46.28</ele>
        <time>2015-04-26T09:48:08Z</time>
      </trkpt>
      <trkpt lat="48.63736" lon="-2.47617">
        <ele>45.8</ele>
        <time>2015-04-26T09:48:26Z</time>
      </trkpt>
      <trkpt lat="48.63734" lon="-2.47609">
        <ele>45.8</ele>
        <time>2015-04-26T09:48:31Z</time>
      </trkpt>
      <trkpt lat="48.6373" lon="-2.47603">
        <ele>46.76</ele>
        <time>2015-04-26T09:48:36Z</time>
      </trkpt>
      <trkpt lat="48.63728" lon="-2.476">
        <ele>47.24</ele>
        <time>2015-04-26T09:48:39Z</time>
      </trkpt>
      <trkpt lat="48.63726" lon="-2.47587">
        <ele>47.72</ele>
        <time>2015-04-26T09:48:48Z</time>
      </trkpt>
      <trkpt lat="48.63726" lon="-2.47583">
        <ele>47.72</ele>
        <time>2015-04-26T09:48:50Z</time>
      </trkpt>
      <trkpt lat="48.63726" lon="-2.4756">
        <ele>48.68</ele>
        <time>2015-04-26T09:49:05Z</time>
      </trkpt>
      <trkpt lat="48.63725" lon="-2.47553">
        <ele>48.2</ele>
        <time>2015-04-26T09:49:09Z</time>
      </trkpt>
      <trkpt lat="48.63724" lon="-2.4755">
        <ele>48.2</ele>
        <time>2015-04-26T09:49:11Z</time>
      </trkpt>
      <trkpt lat="48.6372" lon="-2.4752">
        <ele>48.68</ele>
        <time>2015-04-26T09:49:30Z</time>
      </trkpt>
      <trkpt lat="48.63711" lon="-2.47491">
        <ele>47.24</ele>
        <time>2015-04-26T09:49:52Z</time>
      </trkpt>
      <trkpt lat="48.63705" lon="-2.47472">
        <ele>45.8</ele>
        <time>2015-04-26T09:50:09Z</time>
      </trkpt>
      <trkpt lat="48.63703" lon="-2.47465">
        <ele>45.32</ele>
        <time>2015-04-26T09:50:14Z</time>
      </trkpt>
      <trkpt lat="48.63699" lon="-2.47446">
        <ele>47.72</ele>
        <time>2015-04-26T09:50:35Z</time>
      </trkpt>
      <trkpt lat="48.63698" lon="-2.47433">
        <ele>50.13</ele>
        <time>2015-04-26T09:50:52Z</time>
      </trkpt>
      <trkpt lat="48.63704" lon="-2.47429">
        <ele>51.09</ele>
        <time>2015-04-26T09:51:01Z</time>
      </trkpt>
      <trkpt lat="48.63714" lon="-2.47411">
        <ele>50.61</ele>
        <time>2015-04-26T09:51:20Z</time>
      </trkpt>
      <trkpt lat="48.63715" lon="-2.47392">
        <ele>52.05</ele>
        <time>2015-04-26T09:51:40Z</time>
      </trkpt>
      <trkpt lat="48.63716" lon="-2.47377">
        <ele>52.53</ele>
        <time>2015-04-26T09:51:54Z</time>
      </trkpt>
      <trkpt lat="48.63713" lon="-2.47357">
        <ele>51.09</ele>
        <time>2015-04-26T09:52:12Z</time>
      </trkpt>
      <trkpt lat="48.6371" lon="-2.4734">
        <ele>51.09</ele>
        <time>2015-04-26T09:52:30Z</time>
      </trkpt>
      <trkpt lat="48.63711" lon="-2.47332">
        <ele>53.01</ele>
        <time>2015-04-26T09:52:39Z</time>
      </trkpt>
      <trkpt lat="48.63704" lon="-2.47315">
        <ele>55.89</ele>
        <time>2015-04-26T09:52:56Z</time>
      </trkpt>
      <trkpt lat="48.63708" lon="-2.47302">
        <ele>57.82</ele>
        <time>2015-04-26T09:53:07Z</time>
      </trkpt>
      <trkpt lat="48.63711" lon="-2.47298">
        <ele>58.3</ele>
        <time>2015-04-26T09:53:26Z</time>
      </trkpt>
      <trkpt lat="48.63715" lon="-2.47295">
        <ele>59.74</ele>
        <time>2015-04-26T09:53:44Z</time>
      </trkpt>
      <trkpt lat="48.63715" lon="-2.47306">
        <ele>62.62</ele>
        <time>2015-04-26T09:54:08Z</time>
      </trkpt>
      <trkpt lat="48.63715" lon="-2.4731">
        <ele>63.58</ele>
        <time>2015-04-26T09:54:20Z</time>
      </trkpt>
      <trkpt lat="48.63722" lon="-2.47326">
        <ele>64.07</ele>
        <time>2015-04-26T09:54:34Z</time>
      </trkpt>
      <trkpt lat="48.63729" lon="-2.47335">
        <ele>64.07</ele>
        <time>2015-04-26T09:54:51Z</time>
      </trkpt>
      <trkpt lat="48.63732" lon="-2.47337">
        <ele>64.07</ele>
        <time>2015-04-26T09:54:54Z</time>
      </trkpt>
      <trkpt lat="48.6374" lon="-2.47339">
        <ele>64.55</ele>
        <time>2015-04-26T09:55:01Z</time>
      </trkpt>
      <trkpt lat="48.63752" lon="-2.47343">
        <ele>63.1</ele>
        <time>2015-04-26T09:55:19Z</time>
      </trkpt>
      <trkpt lat="48.63755" lon="-2.47342">
        <ele>62.62</ele>
        <time>2015-04-26T09:55:52Z</time>
      </trkpt>
      <trkpt lat="48.63762" lon="-2.47332">
        <ele>63.1</ele>
        <time>2015-04-26T09:56:01Z</time>
      </trkpt>
      <trkpt lat="48.63764" lon="-2.47326">
        <ele>63.1</ele>
        <time>2015-04-26T09:56:05Z</time>
      </trkpt>
      <trkpt lat="48.63777" lon="-2.47307">
        <ele>62.62</ele>
        <time>2015-04-26T09:56:15Z</time>
      </trkpt>
      <trkpt lat="48.63781" lon="-2.47298">
        <ele>62.62</ele>
        <time>2015-04-26T09:56:21Z</time>
      </trkpt>
      <trkpt lat="48.63783" lon="-2.47293">
        <ele>62.62</ele>
        <time>2015-04-26T09:56:24Z</time>
      </trkpt>
      <trkpt lat="48.63788" lon="-2.47282">
        <ele>62.62</ele>
        <time>2015-04-26T09:56:32Z</time>
      </trkpt>
      <trkpt lat="48.63793" lon="-2.47271">
        <ele>63.1</ele>
        <time>2015-04-26T09:56:39Z</time>
      </trkpt>
      <trkpt lat="48.63805" lon="-2.47246">
        <ele>63.1</ele>
        <time>2015-04-26T09:56:55Z</time>
      </trkpt>
      <trkpt lat="48.63813" lon="-2.4723">
        <ele>63.58</ele>
        <time>2015-04-26T09:57:05Z</time>
      </trkpt>
      <trkpt lat="48.63827" lon="-2.47198">
        <ele>64.07</ele>
        <time>2015-04-26T09:57:25Z</time>
      </trkpt>
      <trkpt lat="48.63828" lon="-2.47197">
        <ele>74.64</ele>
        <time>2015-04-26T09:57:26Z</time>
      </trkpt>
      <trkpt lat="48.63829" lon="-2.47195">
        <ele>63.58</ele>
        <time>2015-04-26T09:57:27Z</time>
      </trkpt>
      <trkpt lat="48.63833" lon="-2.47189">
        <ele>68.39</ele>
        <time>2015-04-26T09:57:31Z</time>
      </trkpt>
      <trkpt lat="48.63833" lon="-2.47187">
        <ele>61.18</ele>
        <time>2015-04-26T09:57:32Z</time>
      </trkpt>
      <trkpt lat="48.63834" lon="-2.47186">
        <ele>66.47</ele>
        <time>2015-04-26T09:57:33Z</time>
      </trkpt>
      <trkpt lat="48.63835" lon="-2.47183">
        <ele>65.99</ele>
        <time>2015-04-26T09:57:35Z</time>
      </trkpt>
      <trkpt lat="48.63836" lon="-2.47182">
        <ele>70.31</ele>
        <time>2015-04-26T09:57:36Z</time>
      </trkpt>
      <trkpt lat="48.63837" lon="-2.4718">
        <ele>64.55</ele>
        <time>2015-04-26T09:57:37Z</time>
      </trkpt>
      <trkpt lat="48.63838" lon="-2.47177">
        <ele>57.82</ele>
        <time>2015-04-26T09:57:39Z</time>
      </trkpt>
      <trkpt lat="48.63839" lon="-2.47176">
        <ele>65.51</ele>
        <time>2015-04-26T09:57:40Z</time>
      </trkpt>
      <trkpt lat="48.63841" lon="-2.47173">
        <ele>65.51</ele>
        <time>2015-04-26T09:57:42Z</time>
      </trkpt>
      <trkpt lat="48.63846" lon="-2.47162">
        <ele>60.22</ele>
        <time>2015-04-26T09:57:50Z</time>
      </trkpt>
      <trkpt lat="48.63847" lon="-2.4716">
        <ele>63.58</ele>
        <time>2015-04-26T09:57:51Z</time>
      </trkpt>
      <trkpt lat="48.63859" lon="-2.47134">
        <ele>56.86</ele>
        <time>2015-04-26T09:58:10Z</time>
      </trkpt>
      <trkpt lat="48.63859" lon="-2.47132">
        <ele>65.51</ele>
        <time>2015-04-26T09:58:11Z</time>
      </trkpt>
      <trkpt lat="48.63865" lon="-2.47121">
        <ele>62.14</ele>
        <time>2015-04-26T09:58:19Z</time>
      </trkpt>
      <trkpt lat="48.63866" lon="-2.4712">
        <ele>65.03</ele>
        <time>2015-04-26T09:58:20Z</time>
      </trkpt>
      <trkpt lat="48.63872" lon="-2.47107">
        <ele>64.55</ele>
        <time>2015-04-26T09:58:31Z</time>
      </trkpt>
      <trkpt lat="48.63885" lon="-2.47081">
        <ele>65.03</ele>
        <time>2015-04-26T09:58:51Z</time>
      </trkpt>
      <trkpt lat="48.63896" lon="-2.4705">
        <ele>64.55</ele>
        <time>2015-04-26T09:59:13Z</time>
      </trkpt>
      <trkpt lat="48.639" lon="-2.47043">
        <ele>64.55</ele>
        <time>2015-04-26T09:59:17Z</time>
      </trkpt>
      <trkpt lat="48.63906" lon="-2.47029">
        <ele>64.55</ele>
        <time>2015-04-26T09:59:25Z</time>
      </trkpt>
      <trkpt lat="48.63911" lon="-2.47022">
        <ele>64.55</ele>
        <time>2015-04-26T09:59:30Z</time>
      </trkpt>
      <trkpt lat="48.63917" lon="-2.47011">
        <ele>64.55</ele>
        <time>2015-04-26T09:59:38Z</time>
      </trkpt>
      <trkpt lat="48.63918" lon="-2.47005">
        <ele>63.58</ele>
        <time>2015-04-26T09:59:42Z</time>
      </trkpt>
      <trkpt lat="48.63924" lon="-2.46991">
        <ele>64.07</ele>
        <time>2015-04-26T09:59:52Z</time>
      </trkpt>
      <trkpt lat="48.63927" lon="-2.46987">
        <ele>64.07</ele>
        <time>2015-04-26T09:59:55Z</time>
      </trkpt>
      <trkpt lat="48.63934" lon="-2.46973">
        <ele>63.1</ele>
        <time>2015-04-26T10:00:05Z</time>
      </trkpt>
      <trkpt lat="48.63947" lon="-2.46946">
        <ele>63.1</ele>
        <time>2015-04-26T10:00:23Z</time>
      </trkpt>
      <trkpt lat="48.63949" lon="-2.4694">
        <ele>63.58</ele>
        <time>2015-04-26T10:00:27Z</time>
      </trkpt>
      <trkpt lat="48.63957" lon="-2.46917">
        <ele>63.1</ele>
        <time>2015-04-26T10:00:41Z</time>
      </trkpt>
      <trkpt lat="48.63963" lon="-2.46906">
        <ele>63.1</ele>
        <time>2015-04-26T10:00:50Z</time>
      </trkpt>
      <trkpt lat="48.63965" lon="-2.46901">
        <ele>62.62</ele>
        <time>2015-04-26T10:00:54Z</time>
      </trkpt>
      <trkpt lat="48.63966" lon="-2.46899">
        <ele>62.62</ele>
        <time>2015-04-26T10:00:56Z</time>
      </trkpt>
      <trkpt lat="48.63973" lon="-2.46859">
        <ele>61.18</ele>
        <time>2015-04-26T10:01:19Z</time>
      </trkpt>
      <trkpt lat="48.63972" lon="-2.46843">
        <ele>61.18</ele>
        <time>2015-04-26T10:01:28Z</time>
      </trkpt>
      <trkpt lat="48.63971" lon="-2.46833">
        <ele>60.7</ele>
        <time>2015-04-26T10:01:33Z</time>
      </trkpt>
      <trkpt lat="48.63971" lon="-2.46825">
        <ele>60.7</ele>
        <time>2015-04-26T10:01:38Z</time>
      </trkpt>
      <trkpt lat="48.6397" lon="-2.46815">
        <ele>61.66</ele>
        <time>2015-04-26T10:01:58Z</time>
      </trkpt>
      <trkpt lat="48.6397" lon="-2.46815">
        <ele>60.22</ele>
        <time>2015-04-26T10:02:00Z</time>
      </trkpt>
      <trkpt lat="48.6397" lon="-2.46811">
        <ele>56.86</ele>
        <time>2015-04-26T10:02:07Z</time>
      </trkpt>
      <trkpt lat="48.6397" lon="-2.4681">
        <ele>60.22</ele>
        <time>2015-04-26T10:02:08Z</time>
      </trkpt>
      <trkpt lat="48.6397" lon="-2.46806">
        <ele>60.22</ele>
        <time>2015-04-26T10:02:10Z</time>
      </trkpt>
      <trkpt lat="48.63963" lon="-2.46775">
        <ele>59.26</ele>
        <time>2015-04-26T10:02:31Z</time>
      </trkpt>
      <trkpt lat="48.63961" lon="-2.46757">
        <ele>58.3</ele>
        <time>2015-04-26T10:02:40Z</time>
      </trkpt>
      <trkpt lat="48.63958" lon="-2.46741">
        <ele>55.41</ele>
        <time>2015-04-26T10:02:49Z</time>
      </trkpt>
      <trkpt lat="48.63957" lon="-2.46739">
        <ele>62.14</ele>
        <time>2015-04-26T10:02:50Z</time>
      </trkpt>
      <trkpt lat="48.63957" lon="-2.46737">
        <ele>57.34</ele>
        <time>2015-04-26T10:02:51Z</time>
      </trkpt>
      <trkpt lat="48.63957" lon="-2.46735">
        <ele>51.09</ele>
        <time>2015-04-26T10:02:52Z</time>
      </trkpt>
      <trkpt lat="48.63956" lon="-2.46733">
        <ele>61.66</ele>
        <time>2015-04-26T10:02:53Z</time>
      </trkpt>
      <trkpt lat="48.63956" lon="-2.46732">
        <ele>59.26</ele>
        <time>2015-04-26T10:02:54Z</time>
      </trkpt>
      <trkpt lat="48.63955" lon="-2.4673">
        <ele>67.91</ele>
        <time>2015-04-26T10:02:55Z</time>
      </trkpt>
      <trkpt lat="48.63955" lon="-2.46729">
        <ele>60.22</ele>
        <time>2015-04-26T10:02:56Z</time>
      </trkpt>
      <trkpt lat="48.63953" lon="-2.46724">
        <ele>58.3</ele>
        <time>2015-04-26T10:02:59Z</time>
      </trkpt>
      <trkpt lat="48.6395" lon="-2.46701">
        <ele>58.78</ele>
        <time>2015-04-26T10:03:13Z</time>
      </trkpt>
      <trkpt lat="48.63943" lon="-2.46673">
        <ele>58.78</ele>
        <time>2015-04-26T10:03:31Z</time>
      </trkpt>
      <trkpt lat="48.63942" lon="-2.46665">
        <ele>57.82</ele>
        <time>2015-04-26T10:03:36Z</time>
      </trkpt>
      <trkpt lat="48.63938" lon="-2.46632">
        <ele>56.86</ele>
        <time>2015-04-26T10:03:57Z</time>
      </trkpt>
      <trkpt lat="48.63932" lon="-2.46616">
        <ele>56.86</ele>
        <time>2015-04-26T10:04:20Z</time>
      </trkpt>
      <trkpt lat="48.63929" lon="-2.46611">
        <ele>55.89</ele>
        <time>2015-04-26T10:04:35Z</time>
      </trkpt>
      <trkpt lat="48.63928" lon="-2.46609">
        <ele>55.41</ele>
        <time>2015-04-26T10:04:49Z</time>
      </trkpt>
      <trkpt lat="48.63926" lon="-2.46595">
        <ele>58.78</ele>
        <time>2015-04-26T10:05:00Z</time>
      </trkpt>
      <trkpt lat="48.63926" lon="-2.4659">
        <ele>56.37</ele>
        <time>2015-04-26T10:05:04Z</time>
      </trkpt>
      <trkpt lat="48.63926" lon="-2.46585">
        <ele>55.41</ele>
        <time>2015-04-26T10:05:07Z</time>
      </trkpt>
      <trkpt lat="48.63928" lon="-2.46575">
        <ele>53.97</ele>
        <time>2015-04-26T10:05:14Z</time>
      </trkpt>
      <trkpt lat="48.63929" lon="-2.46574">
        <ele>56.86</ele>
        <time>2015-04-26T10:05:15Z</time>
      </trkpt>
      <trkpt lat="48.63929" lon="-2.46573">
        <ele>57.34</ele>
        <time>2015-04-26T10:05:16Z</time>
      </trkpt>
      <trkpt lat="48.63933" lon="-2.4655">
        <ele>59.26</ele>
        <time>2015-04-26T10:05:32Z</time>
      </trkpt>
      <trkpt lat="48.63933" lon="-2.46517">
        <ele>60.7</ele>
        <time>2015-04-26T10:05:54Z</time>
      </trkpt>
      <trkpt lat="48.63932" lon="-2.46514">
        <ele>61.18</ele>
        <time>2015-04-26T10:05:56Z</time>
      </trkpt>
      <trkpt lat="48.6393" lon="-2.4651">
        <ele>61.18</ele>
        <time>2015-04-26T10:05:59Z</time>
      </trkpt>
      <trkpt lat="48.6393" lon="-2.46492">
        <ele>61.66</ele>
        <time>2015-04-26T10:06:09Z</time>
      </trkpt>
      <trkpt lat="48.63927" lon="-2.46473">
        <ele>62.14</ele>
        <time>2015-04-26T10:06:29Z</time>
      </trkpt>
      <trkpt lat="48.63926" lon="-2.46466">
        <ele>62.62</ele>
        <time>2015-04-26T10:06:33Z</time>
      </trkpt>
      <trkpt lat="48.6392" lon="-2.46434">
        <ele>62.62</ele>
        <time>2015-04-26T10:06:52Z</time>
      </trkpt>
      <trkpt lat="48.63913" lon="-2.46406">
        <ele>64.55</ele>
        <time>2015-04-26T10:07:13Z</time>
      </trkpt>
      <trkpt lat="48.63911" lon="-2.46395">
        <ele>64.55</ele>
        <time>2015-04-26T10:07:20Z</time>
      </trkpt>
      <trkpt lat="48.63904" lon="-2.4637">
        <ele>65.99</ele>
        <time>2015-04-26T10:07:38Z</time>
      </trkpt>
      <trkpt lat="48.63896" lon="-2.46338">
        <ele>66.95</ele>
        <time>2015-04-26T10:08:00Z</time>
      </trkpt>
      <trkpt lat="48.63892" lon="-2.46307">
        <ele>65.99</ele>
        <time>2015-04-26T10:08:21Z</time>
      </trkpt>
      <trkpt lat="48.63892" lon="-2.463">
        <ele>65.99</ele>
        <time>2015-04-26T10:08:25Z</time>
      </trkpt>
      <trkpt lat="48.63889" lon="-2.46285">
        <ele>66.47</ele>
        <time>2015-04-26T10:08:35Z</time>
      </trkpt>
      <trkpt lat="48.63879" lon="-2.46258">
        <ele>65.99</ele>
        <time>2015-04-26T10:08:55Z</time>
      </trkpt>
      <trkpt lat="48.63867" lon="-2.46232">
        <ele>66.47</ele>
        <time>2015-04-26T10:09:15Z</time>
      </trkpt>
      <trkpt lat="48.63854" lon="-2.46201">
        <ele>66.95</ele>
        <time>2015-04-26T10:09:37Z</time>
      </trkpt>
      <trkpt lat="48.63849" lon="-2.46185">
        <ele>67.91</ele>
        <time>2015-04-26T10:09:47Z</time>
      </trkpt>
      <trkpt lat="48.63848" lon="-2.46178">
        <ele>68.39</ele>
        <time>2015-04-26T10:09:52Z</time>
      </trkpt>
      <trkpt lat="48.63843" lon="-2.46146">
        <ele>69.35</ele>
        <time>2015-04-26T10:10:11Z</time>
      </trkpt>
      <trkpt lat="48.63839" lon="-2.46127">
        <ele>69.83</ele>
        <time>2015-04-26T10:10:23Z</time>
      </trkpt>
      <trkpt lat="48.63835" lon="-2.46094">
        <ele>71.27</ele>
        <time>2015-04-26T10:10:43Z</time>
      </trkpt>
      <trkpt lat="48.63831" lon="-2.46069">
        <ele>71.76</ele>
        <time>2015-04-26T10:11:02Z</time>
      </trkpt>
      <trkpt lat="48.63828" lon="-2.46045">
        <ele>71.27</ele>
        <time>2015-04-26T10:11:22Z</time>
      </trkpt>
      <trkpt lat="48.63821" lon="-2.46006">
        <ele>69.83</ele>
        <time>2015-04-26T10:11:42Z</time>
      </trkpt>
      <trkpt lat="48.63813" lon="-2.45982">
        <ele>66.47</ele>
        <time>2015-04-26T10:11:57Z</time>
      </trkpt>
      <trkpt lat="48.63812" lon="-2.45977">
        <ele>75.12</ele>
        <time>2015-04-26T10:12:00Z</time>
      </trkpt>
      <trkpt lat="48.63812" lon="-2.45976">
        <ele>70.31</ele>
        <time>2015-04-26T10:12:01Z</time>
      </trkpt>
      <trkpt lat="48.63811" lon="-2.45972">
        <ele>66.95</ele>
        <time>2015-04-26T10:12:03Z</time>
      </trkpt>
      <trkpt lat="48.6381" lon="-2.45964">
        <ele>71.76</ele>
        <time>2015-04-26T10:12:07Z</time>
      </trkpt>
      <trkpt lat="48.6381" lon="-2.45961">
        <ele>65.03</ele>
        <time>2015-04-26T10:12:10Z</time>
      </trkpt>
      <trkpt lat="48.6381" lon="-2.45961">
        <ele>68.87</ele>
        <time>2015-04-26T10:12:11Z</time>
      </trkpt>
      <trkpt lat="48.63808" lon="-2.45955">
        <ele>77.52</ele>
        <time>2015-04-26T10:12:18Z</time>
      </trkpt>
      <trkpt lat="48.63807" lon="-2.45953">
        <ele>69.35</ele>
        <time>2015-04-26T10:12:19Z</time>
      </trkpt>
      <trkpt lat="48.63801" lon="-2.45924">
        <ele>68.87</ele>
        <time>2015-04-26T10:12:38Z</time>
      </trkpt>
      <trkpt lat="48.63792" lon="-2.45885">
        <ele>67.43</ele>
        <time>2015-04-26T10:12:58Z</time>
      </trkpt>
      <trkpt lat="48.63791" lon="-2.45881">
        <ele>67.91</ele>
        <time>2015-04-26T10:13:01Z</time>
      </trkpt>
      <trkpt lat="48.63785" lon="-2.45842">
        <ele>68.39</ele>
        <time>2015-04-26T10:13:22Z</time>
      </trkpt>
      <trkpt lat="48.63779" lon="-2.45807">
        <ele>68.39</ele>
        <time>2015-04-26T10:13:42Z</time>
      </trkpt>
      <trkpt lat="48.63775" lon="-2.45786">
        <ele>67.91</ele>
        <time>2015-04-26T10:13:55Z</time>
      </trkpt>
      <trkpt lat="48.63773" lon="-2.45775">
        <ele>68.39</ele>
        <time>2015-04-26T10:14:18Z</time>
      </trkpt>
      <trkpt lat="48.63769" lon="-2.45747">
        <ele>68.39</ele>
        <time>2015-04-26T10:14:38Z</time>
      </trkpt>
      <trkpt lat="48.63766" lon="-2.45726">
        <ele>68.87</ele>
        <time>2015-04-26T10:14:54Z</time>
      </trkpt>
      <trkpt lat="48.63765" lon="-2.45725">
        <ele>68.39</ele>
        <time>2015-04-26T10:14:55Z</time>
      </trkpt>
      <trkpt lat="48.63758" lon="-2.45698">
        <ele>68.39</ele>
        <time>2015-04-26T10:15:11Z</time>
      </trkpt>
      <trkpt lat="48.63756" lon="-2.45685">
        <ele>68.87</ele>
        <time>2015-04-26T10:15:18Z</time>
      </trkpt>
      <trkpt lat="48.6375" lon="-2.45653">
        <ele>68.39</ele>
        <time>2015-04-26T10:15:38Z</time>
      </trkpt>
      <trkpt lat="48.63744" lon="-2.45628">
        <ele>68.87</ele>
        <time>2015-04-26T10:15:55Z</time>
      </trkpt>
      <trkpt lat="48.63741" lon="-2.45592">
        <ele>69.35</ele>
        <time>2015-04-26T10:16:15Z</time>
      </trkpt>
      <trkpt lat="48.63743" lon="-2.45588">
        <ele>68.87</ele>
        <time>2015-04-26T10:16:18Z</time>
      </trkpt>
      <trkpt lat="48.63748" lon="-2.45582">
        <ele>69.35</ele>
        <time>2015-04-26T10:16:26Z</time>
      </trkpt>
      <trkpt lat="48.63769" lon="-2.45582">
        <ele>70.31</ele>
        <time>2015-04-26T10:16:46Z</time>
      </trkpt>
      <trkpt lat="48.63782" lon="-2.45584">
        <ele>71.27</ele>
        <time>2015-04-26T10:16:58Z</time>
      </trkpt>
      <trkpt lat="48.63807" lon="-2.45567">
        <ele>69.83</ele>
        <time>2015-04-26T10:17:19Z</time>
      </trkpt>
      <trkpt lat="48.63808" lon="-2.45568">
        <ele>70.79</ele>
        <time>2015-04-26T10:17:20Z</time>
      </trkpt>
      <trkpt lat="48.63825" lon="-2.45565">
        <ele>69.83</ele>
        <time>2015-04-26T10:17:35Z</time>
      </trkpt>
      <trkpt lat="48.63839" lon="-2.45549">
        <ele>68.87</ele>
        <time>2015-04-26T10:18:00Z</time>
      </trkpt>
      <trkpt lat="48.63872" lon="-2.45467">
        <ele>69.35</ele>
        <time>2015-04-26T10:18:36Z</time>
      </trkpt>
      <trkpt lat="48.63872" lon="-2.45467">
        <ele>69.35</ele>
        <time>2015-04-26T10:18:50Z</time>
      </trkpt>
      <trkpt lat="48.63826" lon="-2.45557">
        <ele>68.87</ele>
        <time>2015-04-26T10:19:02Z</time>
      </trkpt>
      <trkpt lat="48.63825" lon="-2.45573">
        <ele>65.03</ele>
        <time>2015-04-26T10:19:17Z</time>
      </trkpt>
      <trkpt lat="48.63825" lon="-2.45574">
        <ele>68.87</ele>
        <time>2015-04-26T10:19:18Z</time>
      </trkpt>
      <trkpt lat="48.63824" lon="-2.45575">
        <ele>64.55</ele>
        <time>2015-04-26T10:19:23Z</time>
      </trkpt>
      <trkpt lat="48.63824" lon="-2.45575">
        <ele>68.87</ele>
        <time>2015-04-26T10:19:24Z</time>
      </trkpt>
      <trkpt lat="48.63825" lon="-2.45574">
        <ele>65.51</ele>
        <time>2015-04-26T10:19:26Z</time>
      </trkpt>
      <trkpt lat="48.63825" lon="-2.45574">
        <ele>69.35</ele>
        <time>2015-04-26T10:19:27Z</time>
      </trkpt>
    </trkseg>
  </trk>
</gpx>